Observation data for Claude 12 Southwest on 12/10/2018      Previous  Date       Current Mesonet Observations  Soil Data  Daily Summary Page  Observations in Plain Language
KCL1 100600Z 23004KT 02/M09 A3035 RMK A01 T00151087  RH  046%=      5-min Rain = 0
KCL1 100601Z 23004KT 02/M09 A3035 RMK A01 T00161088  RH  046%=      5-min Rain = 0
KCL1 100602Z 23004KT 02/M09 A3035 RMK A01 T00171088  RH  046%=      5-min Rain = 0
KCL1 100603Z 23004KT 02/M09 A3035 RMK A01 T00171088  RH  046%=      5-min Rain = 0
KCL1 100604Z 23004KT 02/M09 A3035 RMK A01 T00171088  RH  046%=      5-min Rain = 0
KCL1 100605Z 23003KT 02/M09 A3035 RMK A01 T00161089  RH  046%=      5-min Rain = 0
KCL1 100606Z 23003KT 02/M09 A3035 RMK A01 T00161089  RH  046%=      5-min Rain = 0
KCL1 100607Z 23003KT 02/M09 A3035 RMK A01 T00161088  RH  046%=      5-min Rain = 0
KCL1 100608Z 22003KT 02/M09 A3034 RMK A01 T00161088  RH  046%=      5-min Rain = 0
KCL1 100609Z 22003KT 02/M09 A3034 RMK A01 T00161088  RH  046%=      5-min Rain = 0
KCL1 100610Z 22002KT 02/M09 A3034 RMK A01 T00161088  RH  046%=      5-min Rain = 0
KCL1 100611Z 22003KT 02/M09 A3034 RMK A01 T00161088  RH  046%=      5-min Rain = 0
KCL1 100612Z 21003KT 02/M09 A3034 RMK A01 T00161088  RH  046%=      5-min Rain = 0
KCL1 100613Z 22002KT 02/M09 A3034 RMK A01 T00171088  RH  046%=      5-min Rain = 0
KCL1 100614Z 22003KT 02/M09 A3034 RMK A01 T00171088  RH  046%=      5-min Rain = 0
KCL1 100615Z 23003KT 02/M09 A3034 RMK A01 T00171088  RH  045%=      5-min Rain = 0
KCL1 100616Z 23003KT 02/M09 A3034 RMK A01 T00171088  RH  045%=      5-min Rain = 0
KCL1 100617Z 23003KT 02/M09 A3034 RMK A01 T00181088  RH  045%=      5-min Rain = 0
KCL1 100618Z 24003KT 02/M09 A3034 RMK A01 T00201088  RH  045%=      5-min Rain = 0
KCL1 100619Z 24004KT 02/M09 A3034 RMK A01 T00231087  RH  044%=      5-min Rain = 0
KCL1 100620Z 24004KT 02/M09 A3034 RMK A01 T00241087  RH  044%=      5-min Rain = 0
KCL1 100621Z 24004KT 03/M09 A3034 RMK A01 T00251087  RH  043%=      5-min Rain = 0
KCL1 100622Z 24004KT 03/M09 A3034 RMK A01 T00261088  RH  043%=      5-min Rain = 0
KCL1 100623Z 24004KT 03/M09 A3034 RMK A01 T00261088  RH  043%=      5-min Rain = 0
KCL1 100624Z 24004KT 03/M09 A3034 RMK A01 T00271088  RH  043%=      5-min Rain = 0
KCL1 100625Z 23004KT 03/M09 A3034 RMK A01 T00271088  RH  042%=      5-min Rain = 0
KCL1 100626Z 23003KT 03/M09 A3034 RMK A01 T00271088  RH  042%=      5-min Rain = 0
KCL1 100627Z 24003KT 03/M09 A3034 RMK A01 T00271088  RH  042%=      5-min Rain = 0
KCL1 100628Z 24003KT 03/M09 A3034 RMK A01 T00271088  RH  042%=      5-min Rain = 0
KCL1 100629Z 24003KT 03/M09 A3034 RMK A01 T00271088  RH  042%=      5-min Rain = 0
KCL1 100630Z 24004KT 03/M09 A3034 RMK A01 T00271088  RH  042%=      5-min Rain = 0
KCL1 100631Z 24004KT 03/M09 A3034 RMK A01 T00271088  RH  042%=      5-min Rain = 0
KCL1 100632Z 24004KT 03/M09 A3034 RMK A01 T00261088  RH  043%=      5-min Rain = 0
KCL1 100633Z 24004KT 03/M09 A3034 RMK A01 T00261088  RH  043%=      5-min Rain = 0
KCL1 100634Z 24004KT 03/M09 A3034 RMK A01 T00261088  RH  043%=      5-min Rain = 0
KCL1 100635Z 23004KT 03/M09 A3034 RMK A01 T00261088  RH  043%=      5-min Rain = 0
KCL1 100636Z 23004KT 03/M09 A3034 RMK A01 T00261088  RH  043%=      5-min Rain = 0
KCL1 100637Z 23003KT 03/M09 A3034 RMK A01 T00251088  RH  043%=      5-min Rain = 0
KCL1 100638Z 23003KT 03/M09 A3034 RMK A01 T00251088  RH  043%=      5-min Rain = 0
KCL1 100639Z 23004KT 03/M09 A3034 RMK A01 T00251088  RH  043%=      5-min Rain = 0
KCL1 100640Z 23004KT 03/M09 A3033 RMK A01 T00251088  RH  043%=      5-min Rain = 0
KCL1 100641Z 23004KT 03/M09 A3033 RMK A01 T00251088  RH  043%=      5-min Rain = 0
KCL1 100642Z 24004KT 03/M09 A3033 RMK A01 T00251088  RH  043%=      5-min Rain = 0
KCL1 100643Z 24005KT 03/M09 A3033 RMK A01 T00251088  RH  043%=      5-min Rain = 0
KCL1 100644Z 24004KT 02/M09 A3033 RMK A01 T00241088  RH  043%=      5-min Rain = 0
KCL1 100645Z 24004KT 03/M09 A3033 RMK A01 T00251088  RH  043%=      5-min Rain = 0
KCL1 100646Z 24005KT 03/M09 A3033 RMK A01 T00251088  RH  043%=      5-min Rain = 0
KCL1 100647Z 25004KT 03/M09 A3033 RMK A01 T00251089  RH  043%=      5-min Rain = 0
KCL1 100648Z 25004KT 03/M09 A3033 RMK A01 T00261088  RH  043%=      5-min Rain = 0
KCL1 100649Z 25003KT 03/M09 A3033 RMK A01 T00251088  RH  043%=      5-min Rain = 0
KCL1 100650Z 25003KT 03/M09 A3033 RMK A01 T00251088  RH  043%=      5-min Rain = 0
KCL1 100651Z 26003KT 02/M09 A3033 RMK A01 T00241089  RH  043%=      5-min Rain = 0
KCL1 100652Z 25003KT 02/M09 A3033 RMK A01 T00241088  RH  043%=      5-min Rain = 0
KCL1 100653Z 26003KT 02/M09 A3033 RMK A01 T00241088  RH  043%=      5-min Rain = 0
KCL1 100654Z 26003KT 02/M09 A3033 RMK A01 T00241088  RH  043%=      5-min Rain = 0
KCL1 100655Z 25003KT 02/M09 A3033 RMK A01 T00241088  RH  043%=      5-min Rain = 0
KCL1 100656Z 25003KT 02/M09 A3033 RMK A01 T00241088  RH  043%=      5-min Rain = 0
KCL1 100657Z 24003KT 02/M09 A3033 RMK A01 T00241088  RH  043%=      5-min Rain = 0
KCL1 100658Z 25002KT 03/M09 A3033 RMK A01 T00251088  RH  043%=      5-min Rain = 0
KCL1 100659Z 26001KT 03/M09 A3033 RMK A01 T00261088  RH  043%=      5-min Rain = 0
KCL1 100700Z 24001KT 03/M09 A3033 RMK A01 T00261088  RH  043%=      5-min Rain = 0
KCL1 100701Z 25001KT 03/M09 A3033 RMK A01 T00271088  RH  043%=      5-min Rain = 0
KCL1 100702Z 26002KT 03/M09 A3033 RMK A01 T00261088  RH  043%=      5-min Rain = 0
KCL1 100703Z 26001KT 03/M09 A3033 RMK A01 T00251089  RH  043%=      5-min Rain = 0
KCL1 100704Z 26002KT 02/M09 A3033 RMK A01 T00241089  RH  043%=      5-min Rain = 0
KCL1 100705Z 27001KT 02/M09 A3033 RMK A01 T00221089  RH  044%=      5-min Rain = 0
KCL1 100706Z 26001KT 02/M09 A3033 RMK A01 T00211089  RH  044%=      5-min Rain = 0
KCL1 100707Z 25001KT 02/M09 A3032 RMK A01 T00191089  RH  045%=      5-min Rain = 0
KCL1 100708Z 25002KT 02/M09 A3032 RMK A01 T00191088  RH  045%=      5-min Rain = 0
KCL1 100709Z 25002KT 02/M09 A3032 RMK A01 T00181088  RH  045%=      5-min Rain = 0
KCL1 100710Z 25002KT 02/M09 A3032 RMK A01 T00191087  RH  045%=      5-min Rain = 0
KCL1 100711Z 26002KT 02/M09 A3032 RMK A01 T00191087  RH  045%=      5-min Rain = 0
KCL1 100712Z 25003KT 02/M09 A3032 RMK A01 T00191088  RH  045%=      5-min Rain = 0
KCL1 100713Z 24003KT 02/M09 A3032 RMK A01 T00201087  RH  045%=      5-min Rain = 0
KCL1 100714Z 25002KT 02/M09 A3032 RMK A01 T00221086  RH  045%=      5-min Rain = 0
KCL1 100715Z 24003KT 02/M09 A3032 RMK A01 T00221086  RH  044%=      5-min Rain = 0
KCL1 100716Z 25003KT 02/M09 A3032 RMK A01 T00221087  RH  044%=      5-min Rain = 0
KCL1 100717Z 25002KT 02/M09 A3032 RMK A01 T00221087  RH  044%=      5-min Rain = 0
KCL1 100718Z 25002KT 02/M09 A3032 RMK A01 T00221087  RH  044%=      5-min Rain = 0
KCL1 100719Z 24002KT 02/M09 A3032 RMK A01 T00221087  RH  044%=      5-min Rain = 0
KCL1 100720Z 26002KT 02/M09 A3032 RMK A01 T00221087  RH  044%=      5-min Rain = 0
KCL1 100721Z 27002KT 02/M09 A3032 RMK A01 T00221087  RH  044%=      5-min Rain = 0
KCL1 100722Z 27002KT 02/M09 A3032 RMK A01 T00231087  RH  044%=      5-min Rain = 0
KCL1 100723Z 27002KT 02/M09 A3032 RMK A01 T00221087  RH  044%=      5-min Rain = 0
KCL1 100724Z 26003KT 02/M09 A3032 RMK A01 T00201088  RH  045%=      5-min Rain = 0
KCL1 100725Z 26002KT 02/M09 A3032 RMK A01 T00191087  RH  045%=      5-min Rain = 0
KCL1 100726Z 26002KT 02/M09 A3032 RMK A01 T00191087  RH  045%=      5-min Rain = 0
KCL1 100727Z 26004KT 02/M09 A3032 RMK A01 T00191087  RH  045%=      5-min Rain = 0
KCL1 100728Z 26003KT 02/M09 A3032 RMK A01 T00221086  RH  045%=      5-min Rain = 0
KCL1 100729Z 27003KT 02/M09 A3032 RMK A01 T00231086  RH  044%=      5-min Rain = 0
KCL1 100730Z 27003KT 02/M09 A3032 RMK A01 T00221087  RH  044%=      5-min Rain = 0
KCL1 100731Z 27003KT 02/M09 A3032 RMK A01 T00211087  RH  045%=      5-min Rain = 0
KCL1 100732Z 28003KT 02/M09 A3032 RMK A01 T00211086  RH  045%=      5-min Rain = 0
KCL1 100733Z 27003KT 02/M09 A3032 RMK A01 T00211086  RH  045%=      5-min Rain = 0
KCL1 100734Z 28003KT 02/M09 A3032 RMK A01 T00211086  RH  045%=      5-min Rain = 0
KCL1 100735Z 28003KT 02/M09 A3032 RMK A01 T00211087  RH  045%=      5-min Rain = 0
KCL1 100736Z 27003KT 02/M09 A3032 RMK A01 T00211087  RH  045%=      5-min Rain = 0
KCL1 100737Z 28004KT 02/M09 A3032 RMK A01 T00201087  RH  045%=      5-min Rain = 0
KCL1 100738Z 28004KT 02/M09 A3032 RMK A01 T00201087  RH  045%=      5-min Rain = 0
KCL1 100739Z 28003KT 02/M09 A3032 RMK A01 T00201087  RH  045%=      5-min Rain = 0
KCL1 100740Z 27003KT 02/M09 A3032 RMK A01 T00201086  RH  045%=      5-min Rain = 0
KCL1 100741Z 28004KT 02/M09 A3032 RMK A01 T00191086  RH  045%=      5-min Rain = 0
KCL1 100742Z 28003KT 02/M09 A3032 RMK A01 T00201086  RH  046%=      5-min Rain = 0
KCL1 100743Z 28003KT 02/M09 A3032 RMK A01 T00191086  RH  046%=      5-min Rain = 0
KCL1 100744Z 28003KT 02/M09 A3032 RMK A01 T00191086  RH  046%=      5-min Rain = 0
KCL1 100745Z 28003KT 02/M09 A3032 RMK A01 T00191086  RH  046%=      5-min Rain = 0
KCL1 100746Z 28003KT 02/M09 A3032 RMK A01 T00201086  RH  046%=      5-min Rain = 0
KCL1 100747Z 28003KT 02/M09 A3032 RMK A01 T00201086  RH  045%=      5-min Rain = 0
KCL1 100748Z 28003KT 02/M09 A3032 RMK A01 T00211086  RH  045%=      5-min Rain = 0
KCL1 100749Z 28003KT 02/M09 A3032 RMK A01 T00211086  RH  045%=      5-min Rain = 0
KCL1 100750Z 28003KT 02/M09 A3032 RMK A01 T00211086  RH  045%=      5-min Rain = 0
KCL1 100751Z 27002KT 02/M09 A3032 RMK A01 T00211086  RH  045%=      5-min Rain = 0
KCL1 100752Z 26002KT 02/M09 A3032 RMK A01 T00201086  RH  045%=      5-min Rain = 0
KCL1 100753Z 27002KT 02/M09 A3032 RMK A01 T00201086  RH  045%=      5-min Rain = 0
KCL1 100754Z 27002KT 02/M09 A3032 RMK A01 T00211086  RH  045%=      5-min Rain = 0
KCL1 100755Z 27002KT 02/M09 A3032 RMK A01 T00211086  RH  045%=      5-min Rain = 0
KCL1 100756Z 27002KT 02/M09 A3032 RMK A01 T00211086  RH  045%=      5-min Rain = 0
KCL1 100757Z 28002KT 02/M09 A3032 RMK A01 T00201086  RH  045%=      5-min Rain = 0
KCL1 100758Z 27002KT 02/M09 A3032 RMK A01 T00201086  RH  045%=      5-min Rain = 0
KCL1 100759Z 27002KT 02/M09 A3032 RMK A01 T00201086  RH  045%=      5-min Rain = 0
KCL1 100800Z 28002KT 02/M09 A3032 RMK A01 T00201086  RH  045%=      5-min Rain = 0
KCL1 100801Z 26003KT 02/M09 A3032 RMK A01 T00191086  RH  046%=      5-min Rain = 0
KCL1 100802Z 26003KT 02/M09 A3032 RMK A01 T00181087  RH  046%=      5-min Rain = 0
KCL1 100803Z 26002KT 02/M09 A3032 RMK A01 T00181087  RH  046%=      5-min Rain = 0
KCL1 100804Z 26002KT 02/M09 A3032 RMK A01 T00171087  RH  046%=      5-min Rain = 0
KCL1 100805Z 25003KT 02/M09 A3032 RMK A01 T00171086  RH  046%=      5-min Rain = 0
KCL1 100806Z 27002KT 02/M09 A3032 RMK A01 T00171086  RH  046%=      5-min Rain = 0
KCL1 100807Z 26003KT 02/M09 A3032 RMK A01 T00161087  RH  046%=      5-min Rain = 0
KCL1 100808Z 27003KT 02/M09 A3032 RMK A01 T00161086  RH  047%=      5-min Rain = 0
KCL1 100809Z 27003KT 01/M09 A3032 RMK A01 T00141087  RH  047%=      5-min Rain = 0
KCL1 100810Z 27003KT 01/M09 A3032 RMK A01 T00131087  RH  047%=      5-min Rain = 0
KCL1 100811Z 26003KT 01/M09 A3032 RMK A01 T00121087  RH  048%=      5-min Rain = 0
KCL1 100812Z 27003KT 01/M09 A3032 RMK A01 T00111087  RH  048%=      5-min Rain = 0
KCL1 100813Z 27003KT 01/M09 A3032 RMK A01 T00111087  RH  048%=      5-min Rain = 0
KCL1 100814Z 27003KT 01/M09 A3032 RMK A01 T00111086  RH  048%=      5-min Rain = 0
KCL1 100815Z 28003KT 01/M09 A3032 RMK A01 T00111086  RH  048%=      5-min Rain = 0
KCL1 100816Z 28003KT 01/M09 A3032 RMK A01 T00121086  RH  048%=      5-min Rain = 0
KCL1 100817Z 29004KT 01/M09 A3032 RMK A01 T00121086  RH  048%=      5-min Rain = 0
KCL1 100818Z 29003KT 01/M09 A3032 RMK A01 T00121086  RH  048%=      5-min Rain = 0
KCL1 100819Z 28003KT 01/M09 A3032 RMK A01 T00121087  RH  048%=      5-min Rain = 0
KCL1 100820Z 27003KT 01/M09 A3032 RMK A01 T00111087  RH  048%=      5-min Rain = 0
KCL1 100821Z 27003KT 01/M09 A3032 RMK A01 T00101086  RH  048%=      5-min Rain = 0
KCL1 100822Z 27003KT 01/M09 A3032 RMK A01 T00101087  RH  048%=      5-min Rain = 0
KCL1 100823Z 27003KT 01/M09 A3032 RMK A01 T00111086  RH  048%=      5-min Rain = 0
KCL1 100824Z 27003KT 01/M09 A3032 RMK A01 T00121085  RH  048%=      5-min Rain = 0
KCL1 100825Z 27003KT 01/M09 A3032 RMK A01 T00121086  RH  048%=      5-min Rain = 0
KCL1 100826Z 29003KT 01/M09 A3032 RMK A01 T00121086  RH  048%=      5-min Rain = 0
KCL1 100827Z 28003KT 01/M09 A3032 RMK A01 T00121086  RH  048%=      5-min Rain = 0
KCL1 100828Z 28003KT 01/M09 A3032 RMK A01 T00121086  RH  048%=      5-min Rain = 0
KCL1 100829Z 29003KT 01/M09 A3032 RMK A01 T00111086  RH  048%=      5-min Rain = 0
KCL1 100830Z 29003KT 01/M09 A3032 RMK A01 T00111086  RH  048%=      5-min Rain = 0
KCL1 100831Z 30004KT 01/M09 A3032 RMK A01 T00111086  RH  049%=      5-min Rain = 0
KCL1 100832Z 30004KT 01/M09 A3032 RMK A01 T00111086  RH  048%=      5-min Rain = 0
KCL1 100833Z 30003KT 01/M09 A3032 RMK A01 T00111086  RH  048%=      5-min Rain = 0
KCL1 100834Z 29003KT 01/M09 A3032 RMK A01 T00101087  RH  049%=      5-min Rain = 0
KCL1 100835Z 29004KT 01/M09 A3032 RMK A01 T00081087  RH  049%=      5-min Rain = 0
KCL1 100836Z 29004KT 01/M09 A3032 RMK A01 T00071087  RH  049%=      5-min Rain = 0
KCL1 100837Z 28003KT 01/M09 A3032 RMK A01 T00051087  RH  050%=      5-min Rain = 0
KCL1 100838Z 28003KT 01/M09 A3032 RMK A01 T00051087  RH  050%=      5-min Rain = 0
KCL1 100839Z 28003KT 00/M09 A3032 RMK A01 T00041087  RH  051%=      5-min Rain = 0
KCL1 100840Z 29003KT 00/M09 A3032 RMK A01 T00041086  RH  051%=      5-min Rain = 0
KCL1 100841Z 29003KT 00/M09 A3032 RMK A01 T00041086  RH  051%=      5-min Rain = 0
KCL1 100842Z 29004KT 00/M09 A3032 RMK A01 T00031087  RH  051%=      5-min Rain = 0
KCL1 100843Z 29004KT 00/M09 A3032 RMK A01 T00021087  RH  051%=      5-min Rain = 0
KCL1 100844Z 29004KT 00/M09 A3032 RMK A01 T00011087  RH  052%=      5-min Rain = 0
KCL1 100845Z 29004KT 00/09 A3032 RMK A01 T00-00-87  RH  052%=      5-min Rain = 0
KCL1 100846Z 28004KT 00/09 A3032 RMK A01 T00000-86  RH  052%=      5-min Rain = 0
KCL1 100847Z 29003KT 00/M09 A3032 RMK A01 T00011086  RH  052%=      5-min Rain = 0
KCL1 100848Z 30004KT 00/M09 A3032 RMK A01 T00031085  RH  052%=      5-min Rain = 0
KCL1 100849Z 29004KT 00/M09 A3032 RMK A01 T00031086  RH  051%=      5-min Rain = 0
KCL1 100850Z 29004KT 00/M09 A3032 RMK A01 T00031086  RH  051%=      5-min Rain = 0
KCL1 100851Z 29004KT 00/M09 A3032 RMK A01 T00041085  RH  051%=      5-min Rain = 0
KCL1 100852Z 29004KT 01/M09 A3032 RMK A01 T00051085  RH  051%=      5-min Rain = 0
KCL1 100853Z 30004KT 01/M09 A3032 RMK A01 T00051086  RH  051%=      5-min Rain = 0
KCL1 100854Z 30004KT 01/M09 A3032 RMK A01 T00051085  RH  051%=      5-min Rain = 0
KCL1 100855Z 28004KT 01/M09 A3032 RMK A01 T00061086  RH  050%=      5-min Rain = 0
KCL1 100856Z 27005KT 01/M08 A3032 RMK A01 T00091084  RH  050%=      5-min Rain = 0
KCL1 100857Z 30003KT 01/M08 A3032 RMK A01 T00131083  RH  049%=      5-min Rain = 0
KCL1 100858Z 30002KT 01/M09 A3032 RMK A01 T00121085  RH  048%=      5-min Rain = 0
KCL1 100859Z 29003KT 01/M09 A3032 RMK A01 T00101086  RH  049%=      5-min Rain = 0
KCL1 100900Z 31004KT 01/M09 A3032 RMK A01 T00081087  RH  049%=      5-min Rain = 0
KCL1 100901Z 29004KT 01/M09 A3032 RMK A01 T00061087  RH  050%=      5-min Rain = 0
KCL1 100902Z 29005KT 01/M09 A3032 RMK A01 T00051086  RH  050%=      5-min Rain = 0
KCL1 100903Z 29005KT 01/M09 A3032 RMK A01 T00051086  RH  051%=      5-min Rain = 0
KCL1 100904Z 29005KT 01/M09 A3032 RMK A01 T00061085  RH  050%=      5-min Rain = 0
KCL1 100905Z 29005KT 01/M09 A3032 RMK A01 T00071085  RH  050%=      5-min Rain = 0
KCL1 100906Z 28005KT 01/M09 A3032 RMK A01 T00071086  RH  050%=      5-min Rain = 0
KCL1 100907Z 29004KT 01/M09 A3032 RMK A01 T00061086  RH  050%=      5-min Rain = 0
KCL1 100908Z 29004KT 00/M09 A3032 RMK A01 T00041087  RH  050%=      5-min Rain = 0
KCL1 100909Z 28004KT 00/M09 A3032 RMK A01 T00031087  RH  051%=      5-min Rain = 0
KCL1 100910Z 28005KT 01/M09 A3032 RMK A01 T00051086  RH  051%=      5-min Rain = 0
KCL1 100911Z 29004KT 01/M09 A3032 RMK A01 T00061086  RH  050%=      5-min Rain = 0
KCL1 100912Z 29004KT 01/M09 A3032 RMK A01 T00061086  RH  050%=      5-min Rain = 0
KCL1 100913Z 29004KT 00/M09 A3032 RMK A01 T00041087  RH  050%=      5-min Rain = 0
KCL1 100914Z 29004KT 00/M09 A3032 RMK A01 T00021088  RH  051%=      5-min Rain = 0
KCL1 100915Z 29005KT 00/M09 A3031 RMK A01 T00011088  RH  051%=      5-min Rain = 0
KCL1 100916Z 28004KT 00/M09 A3031 RMK A01 T00011087  RH  052%=      5-min Rain = 0
KCL1 100917Z 28004KT 00/M09 A3031 RMK A01 T00011086  RH  052%=      5-min Rain = 0
KCL1 100918Z 27005KT 00/M09 A3031 RMK A01 T00021087  RH  052%=      5-min Rain = 0
KCL1 100919Z 28003KT 00/M09 A3031 RMK A01 T00031086  RH  051%=      5-min Rain = 0
KCL1 100920Z 27004KT 00/M09 A3031 RMK A01 T00041086  RH  051%=      5-min Rain = 0
KCL1 100921Z 28004KT 00/M09 A3031 RMK A01 T00031087  RH  051%=      5-min Rain = 0
KCL1 100922Z 28004KT 00/M09 A3031 RMK A01 T00021087  RH  051%=      5-min Rain = 0
KCL1 100923Z 29003KT 00/M09 A3031 RMK A01 T00021087  RH  051%=      5-min Rain = 0
KCL1 100924Z 29004KT 00/M09 A3031 RMK A01 T00011087  RH  052%=      5-min Rain = 0
KCL1 100925Z 29005KT 00/09 A3031 RMK A01 T00-00-87  RH  052%=      5-min Rain = 0
KCL1 100926Z 29005KT M00/M09 A3031 RMK A01 T10011087  RH  052%=      5-min Rain = 0
KCL1 100927Z 28006KT M00/M09 A3032 RMK A01 T10011087  RH  053%=      5-min Rain = 0
KCL1 100928Z 28005KT M00/M09 A3032 RMK A01 T10021087  RH  053%=      5-min Rain = 0
KCL1 100929Z 29005KT M00/M09 A3032 RMK A01 T10011087  RH  052%=      5-min Rain = 0
KCL1 100930Z 29006KT 00/M09 A3032 RMK A01 T00011086  RH  052%=      5-min Rain = 0
KCL1 100931Z 29005KT 00/M09 A3032 RMK A01 T00021087  RH  051%=      5-min Rain = 0
KCL1 100932Z 30006KT 00/M09 A3032 RMK A01 T00021086  RH  051%=      5-min Rain = 0
KCL1 100933Z 29005KT 00/M09 A3032 RMK A01 T00021087  RH  051%=      5-min Rain = 0
KCL1 100934Z 28006KT 00/M09 A3032 RMK A01 T00021087  RH  051%=      5-min Rain = 0
KCL1 100935Z 29005KT 00/M09 A3032 RMK A01 T00021087  RH  051%=      5-min Rain = 0
KCL1 100936Z 28006KT 00/M09 A3032 RMK A01 T00021087  RH  051%=      5-min Rain = 0
KCL1 100937Z 28006KT 00/M09 A3032 RMK A01 T00031087  RH  051%=      5-min Rain = 0
KCL1 100938Z 28006KT 00/M09 A3032 RMK A01 T00041087  RH  051%=      5-min Rain = 0
KCL1 100939Z 28006KT 00/M09 A3031 RMK A01 T00041087  RH  051%=      5-min Rain = 0
KCL1 100940Z 28005KT 00/M09 A3031 RMK A01 T00031087  RH  051%=      5-min Rain = 0
KCL1 100941Z 29005KT 00/M09 A3031 RMK A01 T00041086  RH  051%=      5-min Rain = 0
KCL1 100942Z 29005KT 01/M09 A3031 RMK A01 T00061085  RH  050%=      5-min Rain = 0
KCL1 100943Z 28006KT 00/M09 A3031 RMK A01 T00041087  RH  050%=      5-min Rain = 0
KCL1 100944Z 27005KT 01/M09 A3031 RMK A01 T00051086  RH  050%=      5-min Rain = 0
KCL1 100945Z 27006KT 01/M09 A3031 RMK A01 T00071085  RH  050%=      5-min Rain = 0
KCL1 100946Z 28005KT 01/M09 A3031 RMK A01 T00071086  RH  050%=      5-min Rain = 0
KCL1 100947Z 28005KT 01/M09 A3031 RMK A01 T00071086  RH  050%=      5-min Rain = 0
KCL1 100948Z 28006KT 01/M09 A3031 RMK A01 T00061087  RH  050%=      5-min Rain = 0
KCL1 100949Z 28005KT 01/M09 A3031 RMK A01 T00051087  RH  050%=      5-min Rain = 0
KCL1 100950Z 29005KT 01/M09 A3031 RMK A01 T00051087  RH  050%=      5-min Rain = 0
KCL1 100951Z 29006KT 01/M09 A3031 RMK A01 T00051086  RH  050%=      5-min Rain = 0
KCL1 100952Z 29005KT 01/M09 A3031 RMK A01 T00051086  RH  051%=      5-min Rain = 0
KCL1 100953Z 28004KT 00/M09 A3031 RMK A01 T00041086  RH  051%=      5-min Rain = 0
KCL1 100954Z 28005KT 00/M09 A3031 RMK A01 T00041086  RH  051%=      5-min Rain = 0
KCL1 100955Z 29005KT 00/M09 A3031 RMK A01 T00041086  RH  051%=      5-min Rain = 0
KCL1 100956Z 29005KT 00/M09 A3031 RMK A01 T00041086  RH  051%=      5-min Rain = 0
KCL1 100957Z 29006KT 00/M09 A3031 RMK A01 T00031086  RH  051%=      5-min Rain = 0
KCL1 100958Z 29006KT 00/M09 A3031 RMK A01 T00041086  RH  051%=      5-min Rain = 0
KCL1 100959Z 29006KT 00/M09 A3031 RMK A01 T00041086  RH  051%=      5-min Rain = 0
KCL1 101000Z 29007KT 00/M09 A3031 RMK A01 T00041086  RH  051%=      5-min Rain = 0
KCL1 101001Z 28007KT 00/M09 A3031 RMK A01 T00031087  RH  051%=      5-min Rain = 0
KCL1 101002Z 29007KT 00/M09 A3031 RMK A01 T00021087  RH  051%=      5-min Rain = 0
KCL1 101003Z 28006KT 00/M09 A3031 RMK A01 T00021086  RH  051%=      5-min Rain = 0
KCL1 101004Z 28006KT 00/M09 A3031 RMK A01 T00031086  RH  051%=      5-min Rain = 0
KCL1 101005Z 27007KT 00/M09 A3031 RMK A01 T00041086  RH  051%=      5-min Rain = 0
KCL1 101006Z 27007KT 00/M09 A3031 RMK A01 T00041086  RH  051%=      5-min Rain = 0
KCL1 101007Z 27006KT 01/M09 A3031 RMK A01 T00051085  RH  051%=      5-min Rain = 0
KCL1 101008Z 28009KT 01/M09 A3031 RMK A01 T00061085  RH  051%=      5-min Rain = 0
KCL1 101009Z 27007KT 01/M08 A3031 RMK A01 T00071084  RH  050%=      5-min Rain = 0
KCL1 101010Z 27007KT 01/M08 A3031 RMK A01 T00091084  RH  050%=      5-min Rain = 0
KCL1 101011Z 27007KT 01/M08 A3031 RMK A01 T00101084  RH  049%=      5-min Rain = 0
KCL1 101012Z 27008KT 01/M09 A3031 RMK A01 T00101085  RH  049%=      5-min Rain = 0
KCL1 101013Z 27007KT 01/M08 A3031 RMK A01 T00101084  RH  049%=      5-min Rain = 0
KCL1 101014Z 26006KT 01/M08 A3031 RMK A01 T00101084  RH  049%=      5-min Rain = 0
KCL1 101015Z 28005KT 01/M08 A3031 RMK A01 T00111084  RH  049%=      5-min Rain = 0
KCL1 101016Z 25006KT 01/M09 A3031 RMK A01 T00111085  RH  049%=      5-min Rain = 0
KCL1 101017Z 26006KT 01/M08 A3031 RMK A01 T00111084  RH  049%=      5-min Rain = 0
KCL1 101018Z 27005KT 01/M09 A3031 RMK A01 T00111085  RH  049%=      5-min Rain = 0
KCL1 101019Z 26006KT 01/M09 A3031 RMK A01 T00111085  RH  049%=      5-min Rain = 0
KCL1 101020Z 27007KT 01/M09 A3031 RMK A01 T00101085  RH  049%=      5-min Rain = 0
KCL1 101021Z 26006KT 01/M09 A3031 RMK A01 T00101085  RH  049%=      5-min Rain = 0
KCL1 101022Z 27006KT 01/M09 A3031 RMK A01 T00101085  RH  049%=      5-min Rain = 0
KCL1 101023Z 28008KT 01/M09 A3031 RMK A01 T00091085  RH  049%=      5-min Rain = 0
KCL1 101024Z 28008KT 01/M09 A3031 RMK A01 T00101085  RH  049%=      5-min Rain = 0
KCL1 101025Z 27005KT 01/M09 A3031 RMK A01 T00111085  RH  049%=      5-min Rain = 0
KCL1 101026Z 29003KT 01/M09 A3031 RMK A01 T00111085  RH  049%=      5-min Rain = 0
KCL1 101027Z 26004KT 01/M09 A3031 RMK A01 T00091086  RH  049%=      5-min Rain = 0
KCL1 101028Z 26005KT 01/M09 A3031 RMK A01 T00081086  RH  050%=      5-min Rain = 0
KCL1 101029Z 25006KT 01/M09 A3031 RMK A01 T00071086  RH  050%=      5-min Rain = 0
KCL1 101030Z 26006KT 01/M09 A303 RMK A01 T00081085  RH  050%=      5-min Rain = 0
KCL1 101031Z 25005KT 01/M09 A3031 RMK A01 T00081085  RH  050%=      5-min Rain = 0
KCL1 101032Z 25005KT 01/M09 A3031 RMK A01 T00081085  RH  050%=      5-min Rain = 0
KCL1 101033Z 26005KT 01/M09 A3031 RMK A01 T00081085  RH  050%=      5-min Rain = 0
KCL1 101034Z 25004KT 01/M09 A3031 RMK A01 T00081085  RH  050%=      5-min Rain = 0
KCL1 101035Z 24008KT 01/M09 A303 RMK A01 T00081085  RH  050%=      5-min Rain = 0
KCL1 101036Z 25006KT 01/M08 A303 RMK A01 T00101084  RH  049%=      5-min Rain = 0
KCL1 101037Z 25006KT 01/M08 A303 RMK A01 T00111084  RH  049%=      5-min Rain = 0
KCL1 101038Z 26007KT 01/M08 A303 RMK A01 T00121084  RH  049%=      5-min Rain = 0
KCL1 101039Z 26005KT 01/M08 A303 RMK A01 T00121084  RH  049%=      5-min Rain = 0
KCL1 101040Z 26006KT 01/M09 A303 RMK A01 T00121085  RH  049%=      5-min Rain = 0
KCL1 101041Z 25004KT 01/M09 A303 RMK A01 T00111085  RH  049%=      5-min Rain = 0
KCL1 101042Z 24004KT 01/M09 A303 RMK A01 T00111085  RH  049%=      5-min Rain = 0
KCL1 101043Z 24004KT 01/M09 A303 RMK A01 T00111086  RH  048%=      5-min Rain = 0
KCL1 101044Z 25004G9KT 01/M09 A303 RMK A01 T00121085  RH  048%=      5-min Rain = 0
KCL1 101045Z 26006KT 01/M09 A303 RMK A01 T00111085  RH  048%=      5-min Rain = 0
KCL1 101046Z 25004KT 01/M09 A303 RMK A01 T00121085  RH  049%=      5-min Rain = 0
KCL1 101047Z 24003KT 01/M09 A303 RMK A01 T00111085  RH  049%=      5-min Rain = 0
KCL1 101048Z 26004G9KT 01/M09 A303 RMK A01 T00101085  RH  049%=      5-min Rain = 0
KCL1 101049Z 28005KT 01/M09 A303 RMK A01 T00101085  RH  049%=      5-min Rain = 0
KCL1 101050Z 26003KT 01/M08 A303 RMK A01 T00121083  RH  049%=      5-min Rain = 0
KCL1 101051Z 25001KT 01/M08 A303 RMK A01 T00121084  RH  049%=      5-min Rain = 0
KCL1 101052Z 25003KT 01/M08 A303 RMK A01 T00111084  RH  049%=      5-min Rain = 0
KCL1 101053Z 26003KT 01/M09 A303 RMK A01 T00101085  RH  049%=      5-min Rain = 0
KCL1 101054Z 26004KT 01/M08 A303 RMK A01 T00101084  RH  049%=      5-min Rain = 0
KCL1 101055Z 27005KT 01/M08 A303 RMK A01 T00101084  RH  050%=      5-min Rain = 0
KCL1 101056Z 26005KT 01/M08 A303 RMK A01 T00101083  RH  050%=      5-min Rain = 0
KCL1 101057Z 24003KT 01/M08 A303 RMK A01 T00091083  RH  050%=      5-min Rain = 0
KCL1 101058Z 26002KT 01/M08 A303 RMK A01 T00081084  RH  050%=      5-min Rain = 0
KCL1 101059Z 28003KT 01/M08 A303 RMK A01 T00071084  RH  050%=      5-min Rain = 0
KCL1 101100Z 26004KT 01/M08 A303 RMK A01 T00061084  RH  051%=      5-min Rain = 0
KCL1 101101Z 25004KT 01/M08 A303 RMK A01 T00051084  RH  051%=      5-min Rain = 0
KCL1 101102Z 26002KT 01/M08 A303 RMK A01 T00051083  RH  052%=      5-min Rain = 0
KCL1 101103Z 25004KT 00/M08 A303 RMK A01 T00041083  RH  052%=      5-min Rain = 0
KCL1 101104Z 25004KT 00/M08 A303 RMK A01 T00021084  RH  053%=      5-min Rain = 0
KCL1 101105Z 26006KT 00/M08 A303 RMK A01 T00021083  RH  053%=      5-min Rain = 0
KCL1 101106Z 26006KT 01/M08 A303 RMK A01 T00051081  RH  052%=      5-min Rain = 0
KCL1 101107Z 26005KT 01/M08 A303 RMK A01 T00081081  RH  051%=      5-min Rain = 0
KCL1 101108Z 27004KT 01/M08 A303 RMK A01 T00091081  RH  051%=      5-min Rain = 0
KCL1 101109Z 26004KT 01/M08 A303 RMK A01 T00091081  RH  051%=      5-min Rain = 0
KCL1 101110Z 25006KT 01/M08 A303 RMK A01 T00061082  RH  052%=      5-min Rain = 0
KCL1 101111Z 26007KT 01/M08 A303 RMK A01 T00051082  RH  052%=      5-min Rain = 0
KCL1 101112Z 27005KT 01/M08 A303 RMK A01 T00051081  RH  052%=      5-min Rain = 0
KCL1 101113Z 27006KT 01/M08 A303 RMK A01 T00051081  RH  052%=      5-min Rain = 0
KCL1 101114Z 25006KT 01/M08 A303 RMK A01 T00051081  RH  052%=      5-min Rain = 0
KCL1 101115Z 26005KT 01/M08 A303 RMK A01 T00061081  RH  052%=      5-min Rain = 0
KCL1 101116Z 26007KT 01/M08 A303 RMK A01 T00081080  RH  052%=      5-min Rain = 0
KCL1 101117Z 27007KT 01/M08 A303 RMK A01 T00081081  RH  052%=      5-min Rain = 0
KCL1 101118Z 27004KT 01/M08 A303 RMK A01 T00081080  RH  051%=      5-min Rain = 0
KCL1 101119Z 27005KT 01/M08 A303 RMK A01 T00081081  RH  051%=      5-min Rain = 0
KCL1 101120Z 28005KT 01/M08 A303 RMK A01 T00051082  RH  052%=      5-min Rain = 0
KCL1 101121Z 27005KT 00/M08 A303 RMK A01 T00031083  RH  053%=      5-min Rain = 0
KCL1 101122Z 29006KT 00/08 A303 RMK A01 T00-00-84  RH  053%=      5-min Rain = 0
KCL1 101123Z 29007KT M00/M08 A303 RMK A01 T10031084  RH  054%=      5-min Rain = 0
KCL1 101124Z 29006KT M01/M09 A303 RMK A01 T10061085  RH  055%=      5-min Rain = 0
KCL1 101125Z 29005KT M01/M08 A303 RMK A01 T10081084  RH  056%=      5-min Rain = 0
KCL1 101126Z 29005KT M01/M08 A303 RMK A01 T10091084  RH  057%=      5-min Rain = 0
KCL1 101127Z 31003KT M01/M08 A303 RMK A01 T10101084  RH  057%=      5-min Rain = 0
KCL1 101128Z 29005KT M01/M08 A303 RMK A01 T10121084  RH  058%=      5-min Rain = 0
KCL1 101129Z 30005KT M01/M08 A303 RMK A01 T10121084  RH  058%=      5-min Rain = 0
KCL1 101130Z 30005KT M01/M08 A303 RMK A01 T10131084  RH  059%=      5-min Rain = 0
KCL1 101131Z 30004KT M02/M08 A303 RMK A01 T10151084  RH  059%=      5-min Rain = 0
KCL1 101132Z 29004KT M02/M08 A303 RMK A01 T10171084  RH  060%=      5-min Rain = 0
KCL1 101133Z 30004KT M02/M08 A303 RMK A01 T10181084  RH  061%=      5-min Rain = 0
KCL1 101134Z 31005KT M02/M08 A303 RMK A01 T10181083  RH  061%=      5-min Rain = 0
KCL1 101135Z 31004KT M02/M08 A303 RMK A01 T10181083  RH  061%=      5-min Rain = 0
KCL1 101136Z 30004KT M02/M08 A303 RMK A01 T10181083  RH  061%=      5-min Rain = 0
KCL1 101137Z 29006KT M02/M08 A303 RMK A01 T10191083  RH  061%=      5-min Rain = 0
KCL1 101138Z 30006KT M02/M08 A303 RMK A01 T10191083  RH  061%=      5-min Rain = 0
KCL1 101139Z 30006KT M02/M08 A303 RMK A01 T10191083  RH  061%=      5-min Rain = 0
KCL1 101140Z 30006KT M02/M08 A303 RMK A01 T10191084  RH  061%=      5-min Rain = 0
KCL1 101141Z 30007KT M02/M08 A303 RMK A01 T10191084  RH  061%=      5-min Rain = 0
KCL1 101142Z 30007KT M02/M08 A303 RMK A01 T10191084  RH  061%=      5-min Rain = 0
KCL1 101143Z 29007KT M02/M09 A303 RMK A01 T10201085  RH  061%=      5-min Rain = 0
KCL1 101144Z 29006KT M02/M08 A303 RMK A01 T10201084  RH  061%=      5-min Rain = 0
KCL1 101145Z 28006KT M02/M08 A303 RMK A01 T10191084  RH  061%=      5-min Rain = 0
KCL1 101146Z 29007G12KT M02/M08 A303 RMK A01 T10181084  RH  061%=      5-min Rain = 0
KCL1 101147Z 29006KT M02/M08 A303 RMK A01 T10151082  RH  060%=      5-min Rain = 0
KCL1 101148Z 28009KT M01/M08 A303 RMK A01 T10131083  RH  059%=      5-min Rain = 0
KCL1 101149Z 26008KT M01/M08 A303 RMK A01 T10121083  RH  059%=      5-min Rain = 0
KCL1 101150Z 27008KT M01/M08 A303 RMK A01 T10121084  RH  058%=      5-min Rain = 0
KCL1 101151Z 27008KT M01/M08 A303 RMK A01 T10121084  RH  058%=      5-min Rain = 0
KCL1 101152Z 27008G13KT M01/M08 A303 RMK A01 T10121084  RH  058%=      5-min Rain = 0
KCL1 101153Z 27005KT M01/M08 A303 RMK A01 T10101083  RH  058%=      5-min Rain = 0
KCL1 101154Z 28008G13KT M01/M08 A303 RMK A01 T10101084  RH  057%=      5-min Rain = 0
KCL1 101155Z 29009KT M01/M09 A303 RMK A01 T10111085  RH  057%=      5-min Rain = 0
KCL1 101156Z 28008KT M01/M09 A303 RMK A01 T10111085  RH  057%=      5-min Rain = 0
KCL1 101157Z 28009KT M01/M08 A303 RMK A01 T10101084  RH  057%=      5-min Rain = 0
KCL1 101158Z 28010KT M01/M09 A303 RMK A01 T10111086  RH  057%=      5-min Rain = 0
KCL1 101159Z 29009KT M01/M09 A303 RMK A01 T10111086  RH  057%=      5-min Rain = 0
KCL1 101200Z 28009KT M01/M09 A303 RMK A01 T10121086  RH  057%=      5-min Rain = 0
KCL1 101201Z 28010KT M01/M09 A303 RMK A01 T10131086  RH  057%=      5-min Rain = 0
KCL1 101202Z 27008KT M01/M09 A303 RMK A01 T10111085  RH  057%=      5-min Rain = 0
KCL1 101203Z 28011KT M01/M09 A303 RMK A01 T10101085  RH  057%=      5-min Rain = 0
KCL1 101204Z 27011KT M01/M09 A303 RMK A01 T10081085  RH  056%=      5-min Rain = 0
KCL1 101205Z 28009KT M01/M09 A303 RMK A01 T10061085  RH  055%=      5-min Rain = 0
KCL1 101206Z 27008KT M01/M09 A303 RMK A01 T10071085  RH  055%=      5-min Rain = 0
KCL1 101207Z 27008KT M01/M08 A303 RMK A01 T10071084  RH  056%=      5-min Rain = 0
KCL1 101208Z 27008KT M01/M08 A303 RMK A01 T10061084  RH  056%=      5-min Rain = 0
KCL1 101209Z 27009KT M01/M08 A303 RMK A01 T10061084  RH  055%=      5-min Rain = 0
KCL1 101210Z 29009KT M01/M09 A303 RMK A01 T10081085  RH  056%=      5-min Rain = 0
KCL1 101211Z 29010KT M01/M09 A303 RMK A01 T10101086  RH  056%=      5-min Rain = 0
KCL1 101212Z 28009KT M01/M09 A303 RMK A01 T10111086  RH  057%=      5-min Rain = 0
KCL1 101213Z 29007KT M01/M09 A303 RMK A01 T10131086  RH  057%=      5-min Rain = 0
KCL1 101214Z 29009KT M01/M09 A303 RMK A01 T10141086  RH  058%=      5-min Rain = 0
KCL1 101215Z 29010KT M01/M09 A303 RMK A01 T10141085  RH  058%=      5-min Rain = 0
KCL1 101216Z 29011KT M01/M08 A303 RMK A01 T10131083  RH  059%=      5-min Rain = 0
KCL1 101217Z 29009KT M01/M08 A303 RMK A01 T10111082  RH  058%=      5-min Rain = 0
KCL1 101218Z 30009KT M01/M08 A303 RMK A01 T10101082  RH  058%=      5-min Rain = 0
KCL1 101219Z 29008KT M01/M08 A303 RMK A01 T10111082  RH  058%=      5-min Rain = 0
KCL1 101220Z 29008KT M01/M08 A303 RMK A01 T10121082  RH  059%=      5-min Rain = 0
KCL1 101221Z 29009KT M01/M08 A3031 RMK A01 T10121082  RH  059%=      5-min Rain = 0
KCL1 101222Z 30009KT M01/M08 A3031 RMK A01 T10121082  RH  059%=      5-min Rain = 0
KCL1 101223Z 30008KT M01/M08 A3031 RMK A01 T10121082  RH  059%=      5-min Rain = 0
KCL1 101224Z 30007KT M01/M08 A3031 RMK A01 T10131082  RH  059%=      5-min Rain = 0
KCL1 101225Z 30010KT M01/M08 A3031 RMK A01 T10131082  RH  059%=      5-min Rain = 0
KCL1 101226Z 30010KT M01/M08 A3031 RMK A01 T10131082  RH  059%=      5-min Rain = 0
KCL1 101227Z 30010KT M01/M08 A3031 RMK A01 T10111081  RH  059%=      5-min Rain = 0
KCL1 101228Z 29009G14KT M01/M08 A3031 RMK A01 T10101080  RH  059%=      5-min Rain = 0
KCL1 101229Z 29011KT M01/M08 A303 RMK A01 T10081080  RH  058%=      5-min Rain = 0
KCL1 101230Z 29009KT M01/M08 A303 RMK A01 T10071080  RH  058%=      5-min Rain = 0
KCL1 101231Z 29010KT M01/M08 A303 RMK A01 T10061080  RH  057%=      5-min Rain = 0
KCL1 101232Z 29010KT M01/M08 A303 RMK A01 T10071081  RH  057%=      5-min Rain = 0
KCL1 101233Z 29009KT M01/M08 A3031 RMK A01 T10091082  RH  057%=      5-min Rain = 0
KCL1 101234Z 29009G14KT M01/M08 A3031 RMK A01 T10101082  RH  058%=      5-min Rain = 0
KCL1 101235Z 29008KT M01/M08 A3031 RMK A01 T10111083  RH  058%=      5-min Rain = 0
KCL1 101236Z 28009KT M01/M08 A3031 RMK A01 T10111083  RH  058%=      5-min Rain = 0
KCL1 101237Z 29010KT M01/M08 A3031 RMK A01 T10111082  RH  058%=      5-min Rain = 0
KCL1 101238Z 29010KT M01/M08 A3031 RMK A01 T10111082  RH  058%=      5-min Rain = 0
KCL1 101239Z 29007G13KT M01/M08 A3031 RMK A01 T10111082  RH  058%=      5-min Rain = 0
KCL1 101240Z 29010KT M01/M08 A3031 RMK A01 T10111082  RH  059%=      5-min Rain = 0
KCL1 101241Z 29007KT M01/M08 A3031 RMK A01 T10121082  RH  059%=      5-min Rain = 0
KCL1 101242Z 29007KT M01/M08 A3031 RMK A01 T10121083  RH  059%=      5-min Rain = 0
KCL1 101243Z 29008KT M01/M08 A3031 RMK A01 T10131083  RH  059%=      5-min Rain = 0
KCL1 101244Z 30009KT M01/M08 A3031 RMK A01 T10131083  RH  059%=      5-min Rain = 0
KCL1 101245Z 30010KT M01/M08 A3031 RMK A01 T10121081  RH  059%=      5-min Rain = 0
KCL1 101246Z 30009KT M01/M08 A3031 RMK A01 T10111081  RH  059%=      5-min Rain = 0
KCL1 101247Z 30012KT M01/M08 A3031 RMK A01 T10101081  RH  058%=      5-min Rain = 0
KCL1 101248Z 29009KT M01/M08 A3031 RMK A01 T10081081  RH  058%=      5-min Rain = 0
KCL1 101249Z 30010KT M01/M08 A3031 RMK A01 T10081081  RH  058%=      5-min Rain = 0
KCL1 101250Z 30010KT M01/M08 A3031 RMK A01 T10071081  RH  057%=      5-min Rain = 0
KCL1 101251Z 31009KT M01/M08 A3031 RMK A01 T10081082  RH  057%=      5-min Rain = 0
KCL1 101252Z 30009KT M01/M08 A3031 RMK A01 T10111084  RH  058%=      5-min Rain = 0
KCL1 101253Z 31008KT M01/M08 A3031 RMK A01 T10131084  RH  059%=      5-min Rain = 0
KCL1 101254Z 30008KT M01/M08 A3031 RMK A01 T10141084  RH  059%=      5-min Rain = 0
KCL1 101255Z 30009KT M02/M08 A3031 RMK A01 T10151084  RH  060%=      5-min Rain = 0
KCL1 101256Z 30010KT M02/M08 A3031 RMK A01 T10161083  RH  060%=      5-min Rain = 0
KCL1 101257Z 30009KT M02/M08 A3031 RMK A01 T10161083  RH  060%=      5-min Rain = 0
KCL1 101258Z 30010KT M02/M08 A3031 RMK A01 T10151083  RH  060%=      5-min Rain = 0
KCL1 101259Z 31010KT M02/M08 A3031 RMK A01 T10151083  RH  060%=      5-min Rain = 0
KCL1 101300Z 31009KT M02/M08 A3031 RMK A01 T10161083  RH  060%=      5-min Rain = 0
KCL1 101301Z 30010KT M02/M08 A3031 RMK A01 T10161083  RH  060%=      5-min Rain = 0
KCL1 101302Z 31010KT M02/M08 A3031 RMK A01 T10171083  RH  061%=      5-min Rain = 0
KCL1 101303Z 31011KT M02/M08 A3031 RMK A01 T10171083  RH  061%=      5-min Rain = 0
KCL1 101304Z 31009KT M02/M08 A3031 RMK A01 T10171083  RH  061%=      5-min Rain = 0
KCL1 101305Z 31010KT M02/M08 A3031 RMK A01 T10181083  RH  061%=      5-min Rain = 0
KCL1 101306Z 31010KT M02/M08 A3031 RMK A01 T10181083  RH  061%=      5-min Rain = 0
KCL1 101307Z 31011KT M02/M08 A3031 RMK A01 T10191083  RH  061%=      5-min Rain = 0
KCL1 101308Z 31010KT M02/M08 A3031 RMK A01 T10191083  RH  062%=      5-min Rain = 0
KCL1 101309Z 31010KT M02/M08 A3031 RMK A01 T10191083  RH  062%=      5-min Rain = 0
KCL1 101310Z 31011KT M02/M08 A3031 RMK A01 T10191083  RH  062%=      5-min Rain = 0
KCL1 101311Z 31010KT M02/M08 A3031 RMK A01 T10191083  RH  062%=      5-min Rain = 0
KCL1 101312Z 31011KT M02/M08 A3031 RMK A01 T10181083  RH  061%=      5-min Rain = 0
KCL1 101313Z 31011KT M02/M08 A3031 RMK A01 T10181083  RH  061%=      5-min Rain = 0
KCL1 101314Z 31011KT M02/M08 A3031 RMK A01 T10181083  RH  061%=      5-min Rain = 0
KCL1 101315Z 31011KT M02/M08 A3031 RMK A01 T10181083  RH  061%=      5-min Rain = 0
KCL1 101316Z 31010KT M02/M08 A3032 RMK A01 T10181083  RH  061%=      5-min Rain = 0
KCL1 101317Z 32010KT M02/M08 A3032 RMK A01 T10181083  RH  061%=      5-min Rain = 0
KCL1 101318Z 32010KT M02/M08 A3032 RMK A01 T10181083  RH  061%=      5-min Rain = 0
KCL1 101319Z 32010KT M02/M08 A3032 RMK A01 T10191084  RH  061%=      5-min Rain = 0
KCL1 101320Z 31010KT M02/M08 A3032 RMK A01 T10201084  RH  062%=      5-min Rain = 0
KCL1 101321Z 32010KT M02/M08 A3032 RMK A01 T10211084  RH  062%=      5-min Rain = 0
KCL1 101322Z 31010KT M02/M08 A3032 RMK A01 T10221084  RH  062%=      5-min Rain = 0
KCL1 101323Z 31009KT M02/M09 A3032 RMK A01 T10231085  RH  062%=      5-min Rain = 0
KCL1 101324Z 31009KT M02/M08 A3032 RMK A01 T10231084  RH  063%=      5-min Rain = 0
KCL1 101325Z 31009KT M02/M08 A3032 RMK A01 T10231084  RH  063%=      5-min Rain = 0
KCL1 101326Z 31009KT M02/M08 A3032 RMK A01 T10231084  RH  063%=      5-min Rain = 0
KCL1 101327Z 31009KT M02/M08 A3032 RMK A01 T10221083  RH  063%=      5-min Rain = 0
KCL1 101328Z 31010KT M02/M08 A3032 RMK A01 T10221083  RH  063%=      5-min Rain = 0
KCL1 101329Z 31009KT M02/M08 A3032 RMK A01 T10221083  RH  063%=      5-min Rain = 0
KCL1 101330Z 30008KT M02/M08 A3032 RMK A01 T10221084  RH  063%=      5-min Rain = 0
KCL1 101331Z 30008KT M02/M08 A3032 RMK A01 T10211083  RH  063%=      5-min Rain = 0
KCL1 101332Z 30008KT M02/M08 A3032 RMK A01 T10211084  RH  062%=      5-min Rain = 0
KCL1 101333Z 30007KT M02/M08 A3032 RMK A01 T10211084  RH  062%=      5-min Rain = 0
KCL1 101334Z 30007KT M02/M08 A3032 RMK A01 T10221084  RH  062%=      5-min Rain = 0
KCL1 101335Z 30008KT M02/M08 A3032 RMK A01 T10221084  RH  062%=      5-min Rain = 0
KCL1 101336Z 30007KT M02/M08 A3032 RMK A01 T10221084  RH  063%=      5-min Rain = 0
KCL1 101337Z 30008KT M02/M08 A3032 RMK A01 T10221084  RH  063%=      5-min Rain = 0
KCL1 101338Z 29007KT M02/M08 A3032 RMK A01 T10221084  RH  063%=      5-min Rain = 0
KCL1 101339Z 29005KT M02/M08 A3032 RMK A01 T10221084  RH  062%=      5-min Rain = 0
KCL1 101340Z 29006KT M02/M08 A3032 RMK A01 T10211083  RH  062%=      5-min Rain = 0
KCL1 101341Z 30005KT M02/M08 A3032 RMK A01 T10201083  RH  062%=      5-min Rain = 0
KCL1 101342Z 29004KT M02/M08 A3032 RMK A01 T10191083  RH  062%=      5-min Rain = 0
KCL1 101343Z 30007KT M02/M08 A3032 RMK A01 T10191083  RH  061%=      5-min Rain = 0
KCL1 101344Z 30005KT M02/M08 A3032 RMK A01 T10201084  RH  062%=      5-min Rain = 0
KCL1 101345Z 29006KT M02/M08 A3032 RMK A01 T10201084  RH  062%=      5-min Rain = 0
KCL1 101346Z 30005KT M02/M08 A3032 RMK A01 T10201084  RH  062%=      5-min Rain = 0
KCL1 101347Z 30006KT M02/M08 A3032 RMK A01 T10201084  RH  062%=      5-min Rain = 0
KCL1 101348Z 29006KT M02/M08 A3032 RMK A01 T10201084  RH  062%=      5-min Rain = 0
KCL1 101349Z 29005KT M02/M08 A3032 RMK A01 T10211084  RH  062%=      5-min Rain = 0
KCL1 101350Z 29004KT M02/M08 A3032 RMK A01 T10211084  RH  062%=      5-min Rain = 0
KCL1 101351Z 29004KT M02/M08 A3032 RMK A01 T10201084  RH  062%=      5-min Rain = 0
KCL1 101352Z 29005KT M02/M08 A3032 RMK A01 T10191083  RH  062%=      5-min Rain = 0
KCL1 101353Z 28005KT M02/M08 A3032 RMK A01 T10181083  RH  061%=      5-min Rain = 0
KCL1 101354Z 29006KT M02/M08 A3032 RMK A01 T10161082  RH  061%=      5-min Rain = 0
KCL1 101355Z 29007KT M02/M08 A3032 RMK A01 T10151082  RH  060%=      5-min Rain = 0
KCL1 101356Z 28006KT M01/M08 A3032 RMK A01 T10141082  RH  060%=      5-min Rain = 0
KCL1 101357Z 29006KT M01/M08 A3032 RMK A01 T10131083  RH  059%=      5-min Rain = 0
KCL1 101358Z 29006KT M01/M08 A3032 RMK A01 T10141084  RH  059%=      5-min Rain = 0
KCL1 101359Z 29007KT M02/M08 A3032 RMK A01 T10161084  RH  059%=      5-min Rain = 0
KCL1 101400Z 29005KT M02/M08 A3032 RMK A01 T10161084  RH  060%=      5-min Rain = 0
KCL1 101401Z 29005KT M02/M08 A3032 RMK A01 T10171084  RH  060%=      5-min Rain = 0
KCL1 101402Z 28004KT M02/M08 A3033 RMK A01 T10171084  RH  060%=      5-min Rain = 0
KCL1 101403Z 29003KT M02/M08 A3033 RMK A01 T10171084  RH  060%=      5-min Rain = 0
KCL1 101404Z 28003KT M02/M08 A3033 RMK A01 T10171084  RH  060%=      5-min Rain = 0
KCL1 101405Z 29002KT M02/M09 A3033 RMK A01 T10181085  RH  060%=      5-min Rain = 0
KCL1 101406Z 27003KT M02/M08 A3033 RMK A01 T10181084  RH  061%=      5-min Rain = 0
KCL1 101407Z 29002KT M02/M09 A3033 RMK A01 T10191085  RH  061%=      5-min Rain = 0
KCL1 101408Z 29004KT M02/M08 A3033 RMK A01 T10181084  RH  061%=      5-min Rain = 0
KCL1 101409Z 29004KT M02/M08 A3033 RMK A01 T10171084  RH  061%=      5-min Rain = 0
KCL1 101410Z 29002KT M02/M08 A3033 RMK A01 T10171083  RH  060%=      5-min Rain = 0
KCL1 101411Z 29004KT M02/M08 A3033 RMK A01 T10161083  RH  060%=      5-min Rain = 0
KCL1 101412Z 29004KT M02/M08 A3033 RMK A01 T10161083  RH  060%=      5-min Rain = 0
KCL1 101413Z 29005KT M02/M08 A3033 RMK A01 T10151083  RH  060%=      5-min Rain = 0
KCL1 101414Z 28007KT M01/M08 A3033 RMK A01 T10141083  RH  060%=      5-min Rain = 0
KCL1 101415Z 28006KT M01/M08 A3033 RMK A01 T10131083  RH  059%=      5-min Rain = 0
KCL1 101416Z 29004KT M01/M08 A3033 RMK A01 T10141083  RH  059%=      5-min Rain = 0
KCL1 101417Z 30003KT M01/M08 A3032 RMK A01 T10141083  RH  059%=      5-min Rain = 0
KCL1 101418Z 29002KT M01/M08 A3032 RMK A01 T10131083  RH  059%=      5-min Rain = 0
KCL1 101419Z 30003KT M01/M08 A3032 RMK A01 T10131082  RH  059%=      5-min Rain = 0
KCL1 101420Z 28003KT M01/M08 A3032 RMK A01 T10141083  RH  059%=      5-min Rain = 0
KCL1 101421Z 28002KT M01/M08 A3032 RMK A01 T10141082  RH  060%=      5-min Rain = 0
KCL1 101422Z 29002KT M01/M08 A3033 RMK A01 T10141082  RH  060%=      5-min Rain = 0
KCL1 101423Z 30004KT M01/M08 A3033 RMK A01 T10141082  RH  060%=      5-min Rain = 0
KCL1 101424Z 30005KT M01/M08 A3033 RMK A01 T10141082  RH  060%=      5-min Rain = 0
KCL1 101425Z 30004KT M01/M08 A3033 RMK A01 T10141082  RH  060%=      5-min Rain = 0
KCL1 101426Z 32004KT M01/M08 A3033 RMK A01 T10141081  RH  060%=      5-min Rain = 0
KCL1 101427Z 01002KT M02/M08 A3033 RMK A01 T10151081  RH  061%=      5-min Rain = 0
KCL1 101428Z 02003KT M02/M08 A3033 RMK A01 T10161081  RH  061%=      5-min Rain = 0
KCL1 101429Z 33002KT M02/M08 A3033 RMK A01 T10201082  RH  063%=      5-min Rain = 0
KCL1 101430Z 31003KT M02/M08 A3033 RMK A01 T10221082  RH  064%=      5-min Rain = 0
KCL1 101431Z 30003KT M02/M08 A3033 RMK A01 T10241082  RH  064%=      5-min Rain = 0
KCL1 101432Z 31004KT M03/M08 A3033 RMK A01 T10251082  RH  065%=      5-min Rain = 0
KCL1 101433Z 30005KT M03/M08 A3033 RMK A01 T10251082  RH  065%=      5-min Rain = 0
KCL1 101434Z 31005KT M03/M08 A3033 RMK A01 T10251081  RH  065%=      5-min Rain = 0
KCL1 101435Z 32004KT M02/M08 A3033 RMK A01 T10241080  RH  065%=      5-min Rain = 0
KCL1 101436Z 32003KT M02/M08 A3033 RMK A01 T10231080  RH  065%=      5-min Rain = 0
KCL1 101437Z 32005KT M02/M08 A3033 RMK A01 T10221080  RH  065%=      5-min Rain = 0
KCL1 101438Z 32004KT M02/M08 A3033 RMK A01 T10221080  RH  064%=      5-min Rain = 0
KCL1 101439Z 31004KT M02/M08 A3033 RMK A01 T10211080  RH  064%=      5-min Rain = 0
KCL1 101440Z 31004KT M02/M08 A3033 RMK A01 T10201079  RH  064%=      5-min Rain = 0
KCL1 101441Z 31006KT M02/M08 A3033 RMK A01 T10191079  RH  064%=      5-min Rain = 0
KCL1 101442Z 31005KT M02/M08 A3033 RMK A01 T10181079  RH  063%=      5-min Rain = 0
KCL1 101443Z 31005KT M02/M08 A3033 RMK A01 T10181079  RH  063%=      5-min Rain = 0
KCL1 101444Z 31005KT M02/M08 A3033 RMK A01 T10181079  RH  063%=      5-min Rain = 0
KCL1 101445Z 31004KT M02/M08 A3033 RMK A01 T10181079  RH  063%=      5-min Rain = 0
KCL1 101446Z 30004KT M02/M08 A3033 RMK A01 T10171079  RH  063%=      5-min Rain = 0
KCL1 101447Z 31004KT M02/M08 A3033 RMK A01 T10171079  RH  063%=      5-min Rain = 0
KCL1 101448Z 30003KT M02/M08 A3033 RMK A01 T10171079  RH  063%=      5-min Rain = 0
KCL1 101449Z 30005KT M02/M08 A3033 RMK A01 T10161078  RH  063%=      5-min Rain = 0
KCL1 101450Z 29004KT M02/M08 A3033 RMK A01 T10161077  RH  063%=      5-min Rain = 0
KCL1 101451Z 30005KT M02/M08 A3033 RMK A01 T10161077  RH  063%=      5-min Rain = 0
KCL1 101452Z 30005KT M02/M08 A3033 RMK A01 T10151077  RH  063%=      5-min Rain = 0
KCL1 101453Z 30005KT M02/M08 A3033 RMK A01 T10151077  RH  063%=      5-min Rain = 0
KCL1 101454Z 30005KT M02/M08 A3033 RMK A01 T10151077  RH  062%=      5-min Rain = 0
KCL1 101455Z 28004KT M02/M08 A3033 RMK A01 T10151077  RH  063%=      5-min Rain = 0
KCL1 101456Z 30003KT M02/M08 A3033 RMK A01 T10151077  RH  063%=      5-min Rain = 0
KCL1 101457Z 30005KT M02/M08 A3033 RMK A01 T10151076  RH  063%=      5-min Rain = 0
KCL1 101458Z 31005KT M01/M08 A3033 RMK A01 T10141075  RH  063%=      5-min Rain = 0
KCL1 101459Z 31005KT M01/M08 A3033 RMK A01 T10131075  RH  063%=      5-min Rain = 0
KCL1 101500Z 31005KT M01/M07 A3033 RMK A01 T10121074  RH  063%=      5-min Rain = 0
KCL1 101501Z 32006KT M01/M07 A3033 RMK A01 T10121074  RH  062%=      5-min Rain = 0
KCL1 101502Z 31005KT M01/M07 A3033 RMK A01 T10111074  RH  062%=      5-min Rain = 0
KCL1 101503Z 32006KT M01/M07 A3033 RMK A01 T10111074  RH  062%=      5-min Rain = 0
KCL1 101504Z 31006KT M01/M07 A3033 RMK A01 T10101074  RH  062%=      5-min Rain = 0
KCL1 101505Z 31005KT M01/M07 A3033 RMK A01 T10101073  RH  062%=      5-min Rain = 0
KCL1 101506Z 31006KT M01/M07 A3033 RMK A01 T10091072  RH  062%=      5-min Rain = 0
KCL1 101507Z 31006KT M01/M07 A3033 RMK A01 T10081072  RH  062%=      5-min Rain = 0
KCL1 101508Z 31006KT M01/M07 A3033 RMK A01 T10071072  RH  061%=      5-min Rain = 0
KCL1 101509Z 32004KT M01/M07 A3033 RMK A01 T10061072  RH  061%=      5-min Rain = 0
KCL1 101510Z 32007KT M01/M07 A3033 RMK A01 T10051071  RH  061%=      5-min Rain = 0
KCL1 101511Z 32006KT M01/M07 A3033 RMK A01 T10051071  RH  061%=      5-min Rain = 0
KCL1 101512Z 32006KT M01/M07 A3033 RMK A01 T10051071  RH  061%=      5-min Rain = 0
KCL1 101513Z 32005KT M01/M07 A3033 RMK A01 T10051071  RH  061%=      5-min Rain = 0
KCL1 101514Z 33007KT M00/M07 A3033 RMK A01 T10041070  RH  061%=      5-min Rain = 0
KCL1 101515Z 32008KT M00/M07 A3034 RMK A01 T10031070  RH  061%=      5-min Rain = 0
KCL1 101516Z 32007KT M00/M07 A3034 RMK A01 T10021069  RH  061%=      5-min Rain = 0
KCL1 101517Z 33007KT M00/M07 A3034 RMK A01 T10011067  RH  061%=      5-min Rain = 0
KCL1 101518Z 32008KT 00/07 A3034 RMK A01 T00-00-67  RH  061%=      5-min Rain = 0
KCL1 101519Z 33006KT 00/07 A3034 RMK A01 T00000-67  RH  061%=      5-min Rain = 0
KCL1 101520Z 32006KT 00/M07 A3034 RMK A01 T00021066  RH  060%=      5-min Rain = 0
KCL1 101521Z 32008KT 00/M07 A3034 RMK A01 T00031066  RH  060%=      5-min Rain = 0
KCL1 101522Z 32007KT 00/M07 A3034 RMK A01 T00031066  RH  059%=      5-min Rain = 0
KCL1 101523Z 32007KT 00/M07 A3034 RMK A01 T00041067  RH  059%=      5-min Rain = 0
KCL1 101524Z 31006KT 01/M07 A3034 RMK A01 T00051067  RH  059%=      5-min Rain = 0
KCL1 101525Z 32008KT 01/M07 A3034 RMK A01 T00061067  RH  058%=      5-min Rain = 0
KCL1 101526Z 32008KT 01/M07 A3034 RMK A01 T00071067  RH  058%=      5-min Rain = 0
KCL1 101527Z 32006KT 01/M07 A3034 RMK A01 T00071067  RH  057%=      5-min Rain = 0
KCL1 101528Z 32007KT 01/M07 A3034 RMK A01 T00081067  RH  057%=      5-min Rain = 0
KCL1 101529Z 32007KT 01/M07 A3034 RMK A01 T00091065  RH  057%=      5-min Rain = 0
KCL1 101530Z 32009KT 01/M07 A3034 RMK A01 T00101066  RH  057%=      5-min Rain = 0
KCL1 101531Z 31008KT 01/M07 A3034 RMK A01 T00111066  RH  056%=      5-min Rain = 0
KCL1 101532Z 31007KT 01/M07 A3034 RMK A01 T00111067  RH  056%=      5-min Rain = 0
KCL1 101533Z 31009KT 01/M07 A3034 RMK A01 T00121066  RH  056%=      5-min Rain = 0
KCL1 101534Z 31008KT 01/M07 A3034 RMK A01 T00121066  RH  056%=      5-min Rain = 0
KCL1 101535Z 31007KT 01/M07 A3034 RMK A01 T00121067  RH  056%=      5-min Rain = 0
KCL1 101536Z 31009KT 01/M07 A3034 RMK A01 T00131066  RH  056%=      5-min Rain = 0
KCL1 101537Z 31008KT 01/M07 A3034 RMK A01 T00141065  RH  056%=      5-min Rain = 0
KCL1 101538Z 31008KT 02/M06 A3034 RMK A01 T00151064  RH  056%=      5-min Rain = 0
KCL1 101539Z 30007KT 02/M06 A3034 RMK A01 T00151064  RH  056%=      5-min Rain = 0
KCL1 101540Z 30007G12KT 02/M06 A3034 RMK A01 T00161064  RH  055%=      5-min Rain = 0
KCL1 101541Z 31009KT 02/M06 A3034 RMK A01 T00161064  RH  055%=      5-min Rain = 0
KCL1 101542Z 30008KT 02/M06 A3034 RMK A01 T00171064  RH  055%=      5-min Rain = 0
KCL1 101543Z 31007KT 02/M06 A3034 RMK A01 T00181063  RH  055%=      5-min Rain = 0
KCL1 101544Z 32010KT 02/M06 A3035 RMK A01 T00191063  RH  055%=      5-min Rain = 0
KCL1 101545Z 32008KT 02/M06 A3035 RMK A01 T00201063  RH  054%=      5-min Rain = 0
KCL1 101546Z 32008KT 02/M06 A3035 RMK A01 T00201062  RH  054%=      5-min Rain = 0
KCL1 101547Z 31008KT 02/M06 A3035 RMK A01 T00211062  RH  054%=      5-min Rain = 0
KCL1 101548Z 32011KT 02/M06 A3035 RMK A01 T00221062  RH  054%=      5-min Rain = 0
KCL1 101549Z 32010KT 02/M06 A3035 RMK A01 T00221062  RH  054%=      5-min Rain = 0
KCL1 101550Z 31009KT 02/M06 A3035 RMK A01 T00221062  RH  054%=      5-min Rain = 0
KCL1 101551Z 31007KT 02/M06 A3035 RMK A01 T00231061  RH  054%=      5-min Rain = 0
KCL1 101552Z 33008KT 02/M06 A3035 RMK A01 T00241059  RH  054%=      5-min Rain = 0
KCL1 101553Z 32007KT 03/M06 A3035 RMK A01 T00261058  RH  054%=      5-min Rain = 0
KCL1 101554Z 32008KT 03/M06 A3035 RMK A01 T00271058  RH  054%=      5-min Rain = 0
KCL1 101555Z 32008KT 03/M06 A3035 RMK A01 T00271058  RH  053%=      5-min Rain = 0
KCL1 101556Z 32009KT 03/M06 A3035 RMK A01 T00281057  RH  054%=      5-min Rain = 0
KCL1 101557Z 32008KT 03/M06 A3035 RMK A01 T00281058  RH  053%=      5-min Rain = 0
KCL1 101558Z 33008KT 03/M06 A3035 RMK A01 T00291057  RH  053%=      5-min Rain = 0
KCL1 101559Z 32007KT 03/M06 A3035 RMK A01 T00301056  RH  053%=      5-min Rain = 0
KCL1 101600Z 32008KT 03/M06 A3035 RMK A01 T00311056  RH  053%=      5-min Rain = 0
KCL1 101601Z 32007KT 03/M06 A3035 RMK A01 T00321057  RH  052%=      5-min Rain = 0
KCL1 101602Z 32007KT 03/M06 A3035 RMK A01 T00331056  RH  052%=      5-min Rain = 0
KCL1 101603Z 31009KT 04/M06 A3035 RMK A01 T00351055  RH  052%=      5-min Rain = 0
KCL1 101604Z 32006KT 04/M06 A3035 RMK A01 T00351055  RH  052%=      5-min Rain = 0
KCL1 101605Z 32008KT 04/M05 A3035 RMK A01 T00371054  RH  051%=      5-min Rain = 0
KCL1 101606Z 32007KT 04/M06 A3035 RMK A01 T00381056  RH  050%=      5-min Rain = 0
KCL1 101607Z 33010KT 04/M06 A3035 RMK A01 T00381056  RH  050%=      5-min Rain = 0
KCL1 101608Z 32010KT 04/M06 A3035 RMK A01 T00371058  RH  050%=      5-min Rain = 0
KCL1 101609Z 32010KT 04/M06 A3035 RMK A01 T00361059  RH  050%=      5-min Rain = 0
KCL1 101610Z 33011KT 04/M06 A3035 RMK A01 T00361059  RH  050%=      5-min Rain = 0
KCL1 101611Z 33010KT 04/M06 A3035 RMK A01 T00351059  RH  050%=      5-min Rain = 0
KCL1 101612Z 33010KT 04/M06 A3035 RMK A01 T00351059  RH  050%=      5-min Rain = 0
KCL1 101613Z 32009KT 04/M06 A3036 RMK A01 T00361058  RH  050%=      5-min Rain = 0
KCL1 101614Z 33007KT 04/M06 A3036 RMK A01 T00381056  RH  050%=      5-min Rain = 0
KCL1 101615Z 33008KT 04/M06 A3036 RMK A01 T00391055  RH  050%=      5-min Rain = 0
KCL1 101616Z 34008KT 04/M06 A3036 RMK A01 T00391055  RH  050%=      5-min Rain = 0
KCL1 101617Z 33008KT 04/M06 A3036 RMK A01 T00381056  RH  050%=      5-min Rain = 0
KCL1 101618Z 33006KT 04/M06 A3036 RMK A01 T00371056  RH  050%=      5-min Rain = 0
KCL1 101619Z 32006KT 04/M06 A3036 RMK A01 T00381055  RH  051%=      5-min Rain = 0
KCL1 101620Z 33008KT 04/M05 A3036 RMK A01 T00391054  RH  050%=      5-min Rain = 0
KCL1 101621Z 33007KT 04/M06 A3036 RMK A01 T00401055  RH  050%=      5-min Rain = 0
KCL1 101622Z 32008KT 04/M06 A3036 RMK A01 T00401055  RH  050%=      5-min Rain = 0
KCL1 101623Z 32008KT 04/M06 A3036 RMK A01 T00401056  RH  050%=      5-min Rain = 0
KCL1 101624Z 32007KT 04/M06 A3036 RMK A01 T00401055  RH  050%=      5-min Rain = 0
KCL1 101625Z 33006KT 04/M06 A3036 RMK A01 T00411055  RH  050%=      5-min Rain = 0
KCL1 101626Z 34008KT 04/M05 A3036 RMK A01 T00421053  RH  050%=      5-min Rain = 0
KCL1 101627Z 34009KT 04/M05 A3036 RMK A01 T00421053  RH  050%=      5-min Rain = 0
KCL1 101628Z 34008KT 04/M05 A3036 RMK A01 T00411053  RH  050%=      5-min Rain = 0
KCL1 101629Z 33006KT 04/M05 A3036 RMK A01 T00411053  RH  050%=      5-min Rain = 0
KCL1 101630Z 33007KT 04/M05 A3036 RMK A01 T00421052  RH  050%=      5-min Rain = 0
KCL1 101631Z 34006KT 04/M05 A3036 RMK A01 T00431052  RH  050%=      5-min Rain = 0
KCL1 101632Z 34008KT 04/M05 A3036 RMK A01 T00431051  RH  050%=      5-min Rain = 0
KCL1 101633Z 34009KT 04/M05 A3036 RMK A01 T00431052  RH  050%=      5-min Rain = 0
KCL1 101634Z 34008KT 04/M05 A3036 RMK A01 T00421052  RH  050%=      5-min Rain = 0
KCL1 101635Z 35007KT 04/M05 A3036 RMK A01 T00421051  RH  051%=      5-min Rain = 0
KCL1 101636Z 34007KT 04/M05 A3036 RMK A01 T00431051  RH  051%=      5-min Rain = 0
KCL1 101637Z 33007KT 04/M05 A3036 RMK A01 T00431051  RH  050%=      5-min Rain = 0
KCL1 101638Z 33007KT 04/M05 A3035 RMK A01 T00441051  RH  050%=      5-min Rain = 0
KCL1 101639Z 34011KT 04/M05 A3035 RMK A01 T00441052  RH  050%=      5-min Rain = 0
KCL1 101640Z 33009KT 04/M05 A3035 RMK A01 T00431052  RH  050%=      5-min Rain = 0
KCL1 101641Z 34008KT 04/M05 A3035 RMK A01 T00441051  RH  050%=      5-min Rain = 0
KCL1 101642Z 34008KT 05/M05 A3035 RMK A01 T00461049  RH  050%=      5-min Rain = 0
KCL1 101643Z 33008KT 05/M05 A3035 RMK A01 T00471049  RH  050%=      5-min Rain = 0
KCL1 101644Z 34010KT 05/M05 A3035 RMK A01 T00471050  RH  049%=      5-min Rain = 0
KCL1 101645Z 34010KT 05/M05 A3035 RMK A01 T00471051  RH  049%=      5-min Rain = 0
KCL1 101646Z 34010KT 05/M05 A3035 RMK A01 T00481050  RH  049%=      5-min Rain = 0
KCL1 101647Z 34009KT 05/M05 A3035 RMK A01 T00501048  RH  049%=      5-min Rain = 0
KCL1 101648Z 34010KT 05/M05 A3035 RMK A01 T00511050  RH  048%=      5-min Rain = 0
KCL1 101649Z 33010KT 05/M05 A3035 RMK A01 T00521051  RH  047%=      5-min Rain = 0
KCL1 101650Z 33011KT 05/M05 A3035 RMK A01 T00531051  RH  047%=      5-min Rain = 0
KCL1 101651Z 33011KT 05/M05 A3035 RMK A01 T00541052  RH  046%=      5-min Rain = 0
KCL1 101652Z 33010KT 05/M05 A3035 RMK A01 T00531054  RH  046%=      5-min Rain = 0
KCL1 101653Z 34009KT 05/M05 A3035 RMK A01 T00531053  RH  046%=      5-min Rain = 0
KCL1 101654Z 33010KT 05/M05 A3035 RMK A01 T00541052  RH  046%=      5-min Rain = 0
KCL1 101655Z 33009KT 06/M05 A3035 RMK A01 T00551053  RH  046%=      5-min Rain = 0
KCL1 101656Z 33009KT 06/M05 A3035 RMK A01 T00561052  RH  046%=      5-min Rain = 0
KCL1 101657Z 33008KT 06/M05 A3035 RMK A01 T00571052  RH  046%=      5-min Rain = 0
KCL1 101658Z 33007KT 06/M05 A3034 RMK A01 T00571052  RH  045%=      5-min Rain = 0
KCL1 101659Z 35008KT 06/M05 A3034 RMK A01 T00581053  RH  045%=      5-min Rain = 0
KCL1 101700Z 34009KT 06/M05 A3034 RMK A01 T00591052  RH  045%=      5-min Rain = 0
KCL1 101701Z 34009KT 06/M05 A3034 RMK A01 T00591052  RH  045%=      5-min Rain = 0
KCL1 101702Z 34007KT 06/M05 A3034 RMK A01 T00601051  RH  045%=      5-min Rain = 0
KCL1 101703Z 33009KT 06/M05 A3034 RMK A01 T00611050  RH  045%=      5-min Rain = 0
KCL1 101704Z 33008KT 06/M05 A3034 RMK A01 T00631051  RH  044%=      5-min Rain = 0
KCL1 101705Z 33006KT 06/M05 A3035 RMK A01 T00631052  RH  044%=      5-min Rain = 0
KCL1 101706Z 32007KT 06/M05 A3035 RMK A01 T00631051  RH  044%=      5-min Rain = 0
KCL1 101707Z 31007KT 06/M05 A3035 RMK A01 T00641051  RH  044%=      5-min Rain = 0
KCL1 101708Z 31006KT 06/M05 A3035 RMK A01 T00641051  RH  043%=      5-min Rain = 0
KCL1 101709Z 29006KT 07/M05 A3035 RMK A01 T00661050  RH  043%=      5-min Rain = 0
KCL1 101710Z 30005KT 07/M05 A3035 RMK A01 T00681049  RH  043%=      5-min Rain = 0
KCL1 101711Z 31005KT 07/M05 A3035 RMK A01 T00681050  RH  043%=      5-min Rain = 0
KCL1 101712Z 33006KT 07/M05 A3035 RMK A01 T00671053  RH  042%=      5-min Rain = 0
KCL1 101713Z 33007KT 07/M05 A3034 RMK A01 T00661053  RH  042%=      5-min Rain = 0
KCL1 101714Z 32007KT 07/M05 A3035 RMK A01 T00661054  RH  042%=      5-min Rain = 0
KCL1 101715Z 33005KT 07/M05 A3034 RMK A01 T00661053  RH  042%=      5-min Rain = 0
KCL1 101716Z 34006KT 07/M05 A3034 RMK A01 T00661054  RH  042%=      5-min Rain = 0
KCL1 101717Z 34008KT 07/M05 A3034 RMK A01 T00661052  RH  043%=      5-min Rain = 0
KCL1 101718Z 33007KT 07/M05 A3034 RMK A01 T00681052  RH  042%=      5-min Rain = 0
KCL1 101719Z 33006KT 07/M05 A3034 RMK A01 T00661054  RH  042%=      5-min Rain = 0
KCL1 101720Z 33009KT 07/M05 A3034 RMK A01 T00661054  RH  042%=      5-min Rain = 0
KCL1 101721Z 31006KT 07/M05 A3034 RMK A01 T00661054  RH  042%=      5-min Rain = 0
KCL1 101722Z 28004KT 07/M05 A3034 RMK A01 T00691051  RH  042%=      5-min Rain = 0
KCL1 101723Z 30004KT 07/M05 A3034 RMK A01 T00701052  RH  041%=      5-min Rain = 0
KCL1 101724Z 30007KT 07/M05 A3034 RMK A01 T00711052  RH  041%=      5-min Rain = 0
KCL1 101725Z 29007KT 07/M05 A3034 RMK A01 T00731054  RH  040%=      5-min Rain = 0
KCL1 101726Z 29006KT 07/M06 A3034 RMK A01 T00721055  RH  040%=      5-min Rain = 0
KCL1 101727Z 31005KT 07/M06 A3034 RMK A01 T00721055  RH  040%=      5-min Rain = 0
KCL1 101728Z 32004KT 07/M05 A3034 RMK A01 T00731053  RH  040%=      5-min Rain = 0
KCL1 101729Z 32007KT 07/M05 A3034 RMK A01 T00741053  RH  040%=      5-min Rain = 0
KCL1 101730Z 32005KT 07/M05 A3034 RMK A01 T00741054  RH  040%=      5-min Rain = 0
KCL1 101731Z 33005KT 07/M05 A3034 RMK A01 T00731054  RH  040%=      5-min Rain = 0
KCL1 101732Z 34005KT 07/M05 A3034 RMK A01 T00731054  RH  040%=      5-min Rain = 0
KCL1 101733Z 31004KT 07/M05 A3034 RMK A01 T00731054  RH  040%=      5-min Rain = 0
KCL1 101734Z 26004KT 07/M05 A3034 RMK A01 T00741053  RH  040%=      5-min Rain = 0
KCL1 101735Z 30005KT 07/M05 A3034 RMK A01 T00741053  RH  040%=      5-min Rain = 0
KCL1 101736Z 29005KT 08/M05 A3034 RMK A01 T00761051  RH  040%=      5-min Rain = 0
KCL1 101737Z 31003KT 08/M05 A3034 RMK A01 T00771052  RH  040%=      5-min Rain = 0
KCL1 101738Z 28003KT 08/M05 A3034 RMK A01 T00761053  RH  039%=      5-min Rain = 0
KCL1 101739Z 27004KT 08/M05 A3033 RMK A01 T00761052  RH  040%=      5-min Rain = 0
KCL1 101740Z 31004KT 08/M05 A3033 RMK A01 T00771051  RH  040%=      5-min Rain = 0
KCL1 101741Z 34005KT 08/M05 A3033 RMK A01 T00781050  RH  040%=      5-min Rain = 0
KCL1 101742Z 33005KT 08/M05 A3033 RMK A01 T00781051  RH  040%=      5-min Rain = 0
KCL1 101743Z 31005KT 08/M05 A3033 RMK A01 T00781050  RH  040%=      5-min Rain = 0
KCL1 101744Z 30002KT 08/M05 A3033 RMK A01 T00771052  RH  040%=      5-min Rain = 0
KCL1 101745Z 28001KT 08/M05 A3033 RMK A01 T00751053  RH  040%=      5-min Rain = 0
KCL1 101746Z 25001KT 08/M05 A3033 RMK A01 T00751052  RH  040%=      5-min Rain = 0
KCL1 101747Z 29003KT 08/M05 A3033 RMK A01 T00751051  RH  040%=      5-min Rain = 0
KCL1 101748Z 30006KT 08/M05 A3033 RMK A01 T00771049  RH  040%=      5-min Rain = 0
KCL1 101749Z 28006KT 08/M05 A3033 RMK A01 T00791052  RH  039%=      5-min Rain = 0
KCL1 101750Z 26005KT 08/M05 A3033 RMK A01 T00781053  RH  039%=      5-min Rain = 0
KCL1 101751Z 26005KT 08/M05 A3033 RMK A01 T00781052  RH  039%=      5-min Rain = 0
KCL1 101752Z 27004KT 08/M05 A3033 RMK A01 T00791051  RH  039%=      5-min Rain = 0
KCL1 101753Z 27004KT 08/M05 A3033 RMK A01 T00811051  RH  039%=      5-min Rain = 0
KCL1 101754Z 27005KT 08/M05 A3033 RMK A01 T00831049  RH  039%=      5-min Rain = 0
KCL1 101755Z 25005KT 08/M05 A3032 RMK A01 T00831051  RH  038%=      5-min Rain = 0
KCL1 101756Z 25003KT 08/M05 A3032 RMK A01 T00821052  RH  038%=      5-min Rain = 0
KCL1 101757Z 33003KT 08/M05 A3032 RMK A01 T00821049  RH  039%=      5-min Rain = 0
KCL1 101758Z 33003KT 09/M05 A3032 RMK A01 T00851047  RH  039%=      5-min Rain = 0
KCL1 101759Z 31005KT 09/M05 A3032 RMK A01 T00851049  RH  038%=      5-min Rain = 0
KCL1 101800Z 29007KT 09/M05 A3032 RMK A01 T00851049  RH  038%=      5-min Rain = 0
KCL1 101801Z 29007KT 09/M05 A3032 RMK A01 T00871049  RH  038%=      5-min Rain = 0
KCL1 101802Z 28004KT 09/M05 A3032 RMK A01 T00851051  RH  038%=      5-min Rain = 0
KCL1 101803Z 29001KT 08/M05 A3032 RMK A01 T00831052  RH  038%=      5-min Rain = 0
KCL1 101804Z 29003KT 08/M05 A3032 RMK A01 T00831051  RH  038%=      5-min Rain = 0
KCL1 101805Z 31002KT 08/M05 A3032 RMK A01 T00841050  RH  038%=      5-min Rain = 0
KCL1 101806Z 33004KT 09/M05 A3032 RMK A01 T00851050  RH  038%=      5-min Rain = 0
KCL1 101807Z 32006KT 09/M05 A3032 RMK A01 T00851050  RH  038%=      5-min Rain = 0
KCL1 101808Z 33004KT 09/M05 A3032 RMK A01 T00851049  RH  038%=      5-min Rain = 0
KCL1 101809Z 01003KT 09/M05 A3032 RMK A01 T00861048  RH  038%=      5-min Rain = 0
KCL1 101810Z 34004KT 09/M05 A3032 RMK A01 T00871049  RH  038%=      5-min Rain = 0
KCL1 101811Z 00004KT 09/M05 A3032 RMK A01 T00861050  RH  038%=      5-min Rain = 0
KCL1 101812Z 04001KT 09/M05 A3032 RMK A01 T00851050  RH  038%=      5-min Rain = 0
KCL1 101813Z 01002KT 09/M05 A3032 RMK A01 T00851049  RH  038%=      5-min Rain = 0
KCL1 101814Z 30006KT 09/M05 A3031 RMK A01 T00881046  RH  039%=      5-min Rain = 0
KCL1 101815Z 30005KT 09/M05 A3031 RMK A01 T00881049  RH  038%=      5-min Rain = 0
KCL1 101816Z 30003KT 09/M05 A3031 RMK A01 T00881050  RH  038%=      5-min Rain = 0
KCL1 101817Z 29004KT 09/M05 A3031 RMK A01 T00881050  RH  038%=      5-min Rain = 0
KCL1 101818Z 28003KT 09/M05 A3031 RMK A01 T00871050  RH  038%=      5-min Rain = 0
KCL1 101819Z 31001KT 09/M05 A3031 RMK A01 T00871049  RH  038%=      5-min Rain = 0
KCL1 101820Z 32004KT 09/M05 A3031 RMK A01 T00901045  RH  038%=      5-min Rain = 0
KCL1 101821Z 27004KT 09/M05 A3031 RMK A01 T00941045  RH  037%=      5-min Rain = 0
KCL1 101822Z 26003KT 10/M05 A3031 RMK A01 T00951048  RH  036%=      5-min Rain = 0
KCL1 101823Z 27003KT 09/M05 A3031 RMK A01 T00931048  RH  037%=      5-min Rain = 0
KCL1 101824Z 28003KT 09/M05 A3031 RMK A01 T00941045  RH  037%=      5-min Rain = 0
KCL1 101825Z 26004KT 10/M04 A3031 RMK A01 T00971044  RH  037%=      5-min Rain = 0
KCL1 101826Z 27004KT 10/M04 A3031 RMK A01 T00991044  RH  036%=      5-min Rain = 0
KCL1 101827Z 25004KT 10/M05 A303 RMK A01 T01001045  RH  036%=      5-min Rain = 0
KCL1 101828Z 23003KT 10/M05 A303 RMK A01 T00991047  RH  035%=      5-min Rain = 0
KCL1 101829Z 24003KT 10/M05 A303 RMK A01 T00981047  RH  036%=      5-min Rain = 0
KCL1 101830Z 23005KT 10/M05 A303 RMK A01 T00981047  RH  036%=      5-min Rain = 0
KCL1 101831Z 25002KT 10/M05 A303 RMK A01 T00981046  RH  036%=      5-min Rain = 0
KCL1 101832Z 31001KT 10/M05 A303 RMK A01 T00991047  RH  035%=      5-min Rain = 0
KCL1 101833Z 34003KT 10/M05 A303 RMK A01 T00991047  RH  035%=      5-min Rain = 0
KCL1 101834Z 34004KT 10/M05 A303 RMK A01 T01001047  RH  035%=      5-min Rain = 0
KCL1 101835Z 33002KT 10/M05 A303 RMK A01 T01001046  RH  035%=      5-min Rain = 0
KCL1 101836Z 27005KT 10/M05 A303 RMK A01 T01011045  RH  035%=      5-min Rain = 0
KCL1 101837Z 27004KT 10/M05 A303 RMK A01 T01001047  RH  035%=      5-min Rain = 0
KCL1 101838Z 29003KT 10/M05 A303 RMK A01 T00991047  RH  035%=      5-min Rain = 0
KCL1 101839Z 30004KT 10/M05 A303 RMK A01 T00991047  RH  036%=      5-min Rain = 0
KCL1 101840Z 28004KT 10/M05 A303 RMK A01 T01001046  RH  035%=      5-min Rain = 0
KCL1 101841Z 27002KT 10/M05 A303 RMK A01 T01001047  RH  035%=      5-min Rain = 0
KCL1 101842Z 26003KT 10/M05 A303 RMK A01 T00991047  RH  035%=      5-min Rain = 0
KCL1 101843Z 34003KT 10/M05 A303 RMK A01 T00991047  RH  035%=      5-min Rain = 0
KCL1 101844Z 33005KT 10/M05 A303 RMK A01 T00991047  RH  035%=      5-min Rain = 0
KCL1 101845Z 33003KT 10/M05 A303 RMK A01 T01001046  RH  035%=      5-min Rain = 0
KCL1 101846Z 33005KT 10/M05 A303 RMK A01 T00991047  RH  035%=      5-min Rain = 0
KCL1 101847Z 31006KT 10/M05 A303 RMK A01 T00991047  RH  035%=      5-min Rain = 0
KCL1 101848Z 31003KT 10/M05 A303 RMK A01 T00991047  RH  035%=      5-min Rain = 0
KCL1 101849Z 32002KT 10/M05 A303 RMK A01 T00991048  RH  035%=      5-min Rain = 0
KCL1 101850Z 30003KT 10/M05 A3029 RMK A01 T00991047  RH  035%=      5-min Rain = 0
KCL1 101851Z 32002KT 10/M05 A3029 RMK A01 T00991047  RH  035%=      5-min Rain = 0
KCL1 101852Z 31003KT 10/M05 A3029 RMK A01 T00991048  RH  035%=      5-min Rain = 0
KCL1 101853Z 32004KT 10/M05 A3029 RMK A01 T00991047  RH  035%=      5-min Rain = 0
KCL1 101854Z 30002KT 10/M05 A3029 RMK A01 T00991047  RH  035%=      5-min Rain = 0
KCL1 101855Z 32000KT 10/M05 A3029 RMK A01 T01011046  RH  035%=      5-min Rain = 0
KCL1 101856Z 16002KT 10/M05 A3029 RMK A01 T01031045  RH  035%=      5-min Rain = 0
KCL1 101857Z 20004KT 11/M04 A3029 RMK A01 T01061041  RH  035%=      5-min Rain = 0
KCL1 101858Z 20004KT 11/M04 A3029 RMK A01 T01091041  RH  035%=      5-min Rain = 0
KCL1 101859Z 21003KT 11/M04 A3029 RMK A01 T01091043  RH  034%=      5-min Rain = 0
KCL1 101900Z 19003KT 11/M04 A3029 RMK A01 T01081044  RH  034%=      5-min Rain = 0
KCL1 101901Z 22002KT 11/M04 A3029 RMK A01 T01081042  RH  035%=      5-min Rain = 0
KCL1 101902Z 21004KT 11/M04 A3029 RMK A01 T01101041  RH  034%=      5-min Rain = 0
KCL1 101903Z 23006KT 11/M04 A3028 RMK A01 T01111041  RH  034%=      5-min Rain = 0
KCL1 101904Z 27006KT 11/M04 A3028 RMK A01 T01111041  RH  034%=      5-min Rain = 0
KCL1 101905Z 26007KT 11/M04 A3028 RMK A01 T01111042  RH  034%=      5-min Rain = 0
KCL1 101906Z 25008KT 11/M04 A3028 RMK A01 T01111042  RH  034%=      5-min Rain = 0
KCL1 101907Z 27004KT 11/M05 A3029 RMK A01 T01081045  RH  034%=      5-min Rain = 0
KCL1 101908Z 29002KT 11/M04 A3028 RMK A01 T01061044  RH  034%=      5-min Rain = 0
KCL1 101909Z 25004KT 11/M05 A3028 RMK A01 T01061045  RH  034%=      5-min Rain = 0
KCL1 101910Z 27006KT 11/M04 A3028 RMK A01 T01071043  RH  035%=      5-min Rain = 0
KCL1 101911Z 27005KT 11/M04 A3028 RMK A01 T01071043  RH  035%=      5-min Rain = 0
KCL1 101912Z 29005KT 11/M04 A3028 RMK A01 T01081042  RH  035%=      5-min Rain = 0
KCL1 101913Z 26007KT 11/M04 A3028 RMK A01 T01091043  RH  034%=      5-min Rain = 0
KCL1 101914Z 25004KT 11/M04 A3028 RMK A01 T01081043  RH  034%=      5-min Rain = 0
KCL1 101915Z 27005KT 11/M04 A3028 RMK A01 T01091042  RH  034%=      5-min Rain = 0
KCL1 101916Z 24005KT 11/M04 A3028 RMK A01 T01091042  RH  034%=      5-min Rain = 0
KCL1 101917Z 23005KT 11/M04 A3028 RMK A01 T01111042  RH  034%=      5-min Rain = 0
KCL1 101918Z 24007KT 11/M04 A3028 RMK A01 T01121041  RH  034%=      5-min Rain = 0
KCL1 101919Z 23005KT 11/M04 A3028 RMK A01 T01131042  RH  033%=      5-min Rain = 0
KCL1 101920Z 24003KT 11/M04 A3028 RMK A01 T01121044  RH  033%=      5-min Rain = 0
KCL1 101921Z 24002KT 11/M04 A3028 RMK A01 T01111043  RH  034%=      5-min Rain = 0
KCL1 101922Z 27005KT 11/M04 A3028 RMK A01 T01111043  RH  034%=      5-min Rain = 0
KCL1 101923Z 30006KT 11/M04 A3028 RMK A01 T01111043  RH  034%=      5-min Rain = 0
KCL1 101924Z 30004KT 11/M04 A3027 RMK A01 T01131040  RH  034%=      5-min Rain = 0
KCL1 101925Z 29006KT 12/M04 A3027 RMK A01 T01151041  RH  033%=      5-min Rain = 0
KCL1 101926Z 28005KT 12/M04 A3027 RMK A01 T01151041  RH  033%=      5-min Rain = 0
KCL1 101927Z 28005KT 11/M04 A3027 RMK A01 T01131043  RH  033%=      5-min Rain = 0
KCL1 101928Z 29006KT 11/M04 A3027 RMK A01 T01121043  RH  033%=      5-min Rain = 0
KCL1 101929Z 29006KT 11/M04 A3027 RMK A01 T01121042  RH  034%=      5-min Rain = 0
KCL1 101930Z 29003KT 11/M04 A3027 RMK A01 T01111044  RH  033%=      5-min Rain = 0
KCL1 101931Z 27003KT 11/M04 A3027 RMK A01 T01101043  RH  034%=      5-min Rain = 0
KCL1 101932Z 26003KT 11/M04 A3027 RMK A01 T01121042  RH  034%=      5-min Rain = 0
KCL1 101933Z 26004KT 11/M04 A3027 RMK A01 T01141040  RH  034%=      5-min Rain = 0
KCL1 101934Z 25002KT 12/M04 A3027 RMK A01 T01161041  RH  033%=      5-min Rain = 0
KCL1 101935Z 23004KT 12/M04 A3027 RMK A01 T01161041  RH  033%=      5-min Rain = 0
KCL1 101936Z 21006KT 12/M04 A3027 RMK A01 T01161041  RH  033%=      5-min Rain = 0
KCL1 101937Z 21006KT 12/M04 A3027 RMK A01 T01151043  RH  033%=      5-min Rain = 0
KCL1 101938Z 18004KT 11/M04 A3027 RMK A01 T01131042  RH  033%=      5-min Rain = 0
KCL1 101939Z 17005KT 11/M04 A3027 RMK A01 T01131043  RH  033%=      5-min Rain = 0
KCL1 101940Z 18006KT 11/M04 A3027 RMK A01 T01141042  RH  033%=      5-min Rain = 0
KCL1 101941Z 17005KT 11/M04 A3027 RMK A01 T01141042  RH  033%=      5-min Rain = 0
KCL1 101942Z 16004KT 12/M04 A3027 RMK A01 T01151042  RH  033%=      5-min Rain = 0
KCL1 101943Z 17004KT 12/M04 A3027 RMK A01 T01151042  RH  033%=      5-min Rain = 0
KCL1 101944Z 14005KT 11/M04 A3027 RMK A01 T01141042  RH  033%=      5-min Rain = 0
KCL1 101945Z 17003KT 11/M04 A3027 RMK A01 T01141041  RH  033%=      5-min Rain = 0
KCL1 101946Z 18003KT 12/M04 A3027 RMK A01 T01151042  RH  033%=      5-min Rain = 0
KCL1 101947Z 17004KT 12/M04 A3027 RMK A01 T01151043  RH  033%=      5-min Rain = 0
KCL1 101948Z 16004KT 12/M04 A3026 RMK A01 T01151043  RH  033%=      5-min Rain = 0
KCL1 101949Z 20005KT 12/M04 A3026 RMK A01 T01171041  RH  033%=      5-min Rain = 0
KCL1 101950Z 20004KT 12/M04 A3026 RMK A01 T01181043  RH  032%=      5-min Rain = 0
KCL1 101951Z 20005KT 12/M04 A3026 RMK A01 T01181042  RH  032%=      5-min Rain = 0
KCL1 101952Z 19004KT 12/M04 A3026 RMK A01 T01171042  RH  033%=      5-min Rain = 0
KCL1 101953Z 19004KT 12/M04 A3026 RMK A01 T01171042  RH  033%=      5-min Rain = 0
KCL1 101954Z 21004KT 12/M04 A3026 RMK A01 T01171043  RH  032%=      5-min Rain = 0
KCL1 101955Z 21006KT 12/M04 A3026 RMK A01 T01171042  RH  033%=      5-min Rain = 0
KCL1 101956Z 21003KT 12/M04 A3026 RMK A01 T01171043  RH  032%=      5-min Rain = 0
KCL1 101957Z 20005KT 12/M04 A3026 RMK A01 T01171043  RH  032%=      5-min Rain = 0
KCL1 101958Z 21006KT 12/M04 A3026 RMK A01 T01181043  RH  032%=      5-min Rain = 0
KCL1 101959Z 23005KT 12/M04 A3026 RMK A01 T01181043  RH  032%=      5-min Rain = 0
KCL1 102000Z 25004KT 12/M04 A3026 RMK A01 T01181044  RH  032%=      5-min Rain = 0
KCL1 102001Z 25005KT 12/M04 A3026 RMK A01 T01181044  RH  032%=      5-min Rain = 0
KCL1 102002Z 25004KT 12/M04 A3026 RMK A01 T01191044  RH  032%=      5-min Rain = 0
KCL1 102003Z 22002KT 12/M05 A3026 RMK A01 T01181046  RH  031%=      5-min Rain = 0
KCL1 102004Z 32000KT 12/M05 A3026 RMK A01 T01171045  RH  032%=      5-min Rain = 0
KCL1 102005Z 29000KT 12/M04 A3026 RMK A01 T01181044  RH  032%=      5-min Rain = 0
KCL1 102006Z 27002KT 12/M04 A3026 RMK A01 T01191043  RH  032%=      5-min Rain = 0
KCL1 102007Z 28002KT 12/M04 A3026 RMK A01 T01221042  RH  032%=      5-min Rain = 0
KCL1 102008Z 30003KT 12/M04 A3026 RMK A01 T01231043  RH  031%=      5-min Rain = 0
KCL1 102009Z 28003KT 12/M04 A3026 RMK A01 T01231044  RH  031%=      5-min Rain = 0
KCL1 102010Z 29003KT 12/M04 A3025 RMK A01 T01231043  RH  031%=      5-min Rain = 0
KCL1 102011Z 26003KT 12/M04 A3025 RMK A01 T01241043  RH  031%=      5-min Rain = 0
KCL1 102012Z 27005KT 13/M04 A3025 RMK A01 T01251044  RH  031%=      5-min Rain = 0
KCL1 102013Z 27004KT 13/M05 A3025 RMK A01 T01251045  RH  030%=      5-min Rain = 0
KCL1 102014Z 28003KT 13/M05 A3025 RMK A01 T01251045  RH  030%=      5-min Rain = 0
KCL1 102015Z 26005KT 13/M04 A3025 RMK A01 T01251044  RH  031%=      5-min Rain = 0
KCL1 102016Z 25005KT 13/M04 A3025 RMK A01 T01271043  RH  030%=      5-min Rain = 0
KCL1 102017Z 21003KT 13/M05 A3025 RMK A01 T01261045  RH  030%=      5-min Rain = 0
KCL1 102018Z 18003KT 13/M05 A3025 RMK A01 T01251045  RH  030%=      5-min Rain = 0
KCL1 102019Z 18002KT 13/M04 A3025 RMK A01 T01251044  RH  030%=      5-min Rain = 0
KCL1 102020Z 19006KT 13/M04 A3025 RMK A01 T01271043  RH  030%=      5-min Rain = 0
KCL1 102021Z 18005KT 13/M04 A3025 RMK A01 T01271042  RH  030%=      5-min Rain = 0
KCL1 102022Z 16005KT 13/M04 A3025 RMK A01 T01271042  RH  030%=      5-min Rain = 0
KCL1 102023Z 16005KT 13/M04 A3025 RMK A01 T01271043  RH  030%=      5-min Rain = 0
KCL1 102024Z 17004KT 13/M04 A3025 RMK A01 T01261043  RH  031%=      5-min Rain = 0
KCL1 102025Z 20005KT 13/M04 A3025 RMK A01 T01281040  RH  031%=      5-min Rain = 0
KCL1 102026Z 21005KT 13/M04 A3025 RMK A01 T01281042  RH  030%=      5-min Rain = 0
KCL1 102027Z 22004KT 13/M04 A3025 RMK A01 T01271042  RH  031%=      5-min Rain = 0
KCL1 102028Z 23002KT 13/M04 A3025 RMK A01 T01261044  RH  030%=      5-min Rain = 0
KCL1 102029Z 22002KT 13/M04 A3025 RMK A01 T01251044  RH  030%=      5-min Rain = 0
KCL1 102030Z 18001KT 13/M04 A3025 RMK A01 T01251044  RH  030%=      5-min Rain = 0
KCL1 102031Z 14003KT 13/M04 A3025 RMK A01 T01271041  RH  031%=      5-min Rain = 0
KCL1 102032Z 16003KT 13/M04 A3025 RMK A01 T01301040  RH  031%=      5-min Rain = 0
KCL1 102033Z 18004KT 13/M04 A3025 RMK A01 T01331038  RH  030%=      5-min Rain = 0
KCL1 102034Z 24007KT 13/M04 A3025 RMK A01 T01331041  RH  030%=      5-min Rain = 0
KCL1 102035Z 24004KT 13/M04 A3025 RMK A01 T01311042  RH  030%=      5-min Rain = 0
KCL1 102036Z 21003KT 13/M04 A3025 RMK A01 T01301042  RH  030%=      5-min Rain = 0
KCL1 102037Z 17004KT 13/M04 A3025 RMK A01 T01291043  RH  030%=      5-min Rain = 0
KCL1 102038Z 22006KT 13/M04 A3025 RMK A01 T01281042  RH  030%=      5-min Rain = 0
KCL1 102039Z 21005KT 13/M04 A3025 RMK A01 T01281042  RH  030%=      5-min Rain = 0
KCL1 102040Z 21006KT 13/M04 A3025 RMK A01 T01281041  RH  031%=      5-min Rain = 0
KCL1 102041Z 22006KT 13/M04 A3025 RMK A01 T01291041  RH  030%=      5-min Rain = 0
KCL1 102042Z 21004KT 13/M04 A3025 RMK A01 T01281043  RH  030%=      5-min Rain = 0
KCL1 102043Z 21004KT 13/M04 A3025 RMK A01 T01271042  RH  030%=      5-min Rain = 0
KCL1 102044Z 24003KT 13/M04 A3025 RMK A01 T01281043  RH  030%=      5-min Rain = 0
KCL1 102045Z 26002KT 13/M04 A3025 RMK A01 T01271043  RH  030%=      5-min Rain = 0
KCL1 102046Z 25002KT 13/M04 A3025 RMK A01 T01271044  RH  030%=      5-min Rain = 0
KCL1 102047Z 23002KT 13/M04 A3025 RMK A01 T01281042  RH  030%=      5-min Rain = 0
KCL1 102048Z 21002KT 13/M04 A3025 RMK A01 T01301042  RH  030%=      5-min Rain = 0
KCL1 102049Z 24003KT 13/M04 A3025 RMK A01 T01301043  RH  030%=      5-min Rain = 0
KCL1 102050Z 26007KT 13/M04 A3025 RMK A01 T01301042  RH  030%=      5-min Rain = 0
KCL1 102051Z 27005KT 13/M04 A3025 RMK A01 T01301043  RH  030%=      5-min Rain = 0
KCL1 102052Z 28004KT 13/M04 A3025 RMK A01 T01281044  RH  030%=      5-min Rain = 0
KCL1 102053Z 26005KT 13/M04 A3025 RMK A01 T01271044  RH  030%=      5-min Rain = 0
KCL1 102054Z 27002KT 13/M05 A3025 RMK A01 T01271045  RH  030%=      5-min Rain = 0
KCL1 102055Z 22003KT 13/M05 A3025 RMK A01 T01271046  RH  030%=      5-min Rain = 0
KCL1 102056Z 22004KT 13/M05 A3025 RMK A01 T01271048  RH  029%=      5-min Rain = 0
KCL1 102057Z 26003KT 13/M05 A3025 RMK A01 T01271047  RH  029%=      5-min Rain = 0
KCL1 102058Z 25001KT 13/M05 A3025 RMK A01 T01261048  RH  029%=      5-min Rain = 0
KCL1 102059Z 00000KT 13/M05 A3025 RMK A01 T01281047  RH  029%=      5-min Rain = 0
KCL1 102100Z 28001KT 13/M05 A3025 RMK A01 T01291047  RH  029%=      5-min Rain = 0
KCL1 102101Z 24002KT 13/M05 A3025 RMK A01 T01321046  RH  029%=      5-min Rain = 0
KCL1 102102Z 20004KT 13/M05 A3025 RMK A01 T01331046  RH  028%=      5-min Rain = 0
KCL1 102103Z 21005KT 13/M05 A3025 RMK A01 T01331046  RH  028%=      5-min Rain = 0
KCL1 102104Z 22005KT 13/M05 A3025 RMK A01 T01331046  RH  028%=      5-min Rain = 0
KCL1 102105Z 23007KT 13/M05 A3024 RMK A01 T01321047  RH  028%=      5-min Rain = 0
KCL1 102106Z 23006KT 13/M05 A3024 RMK A01 T01311050  RH  028%=      5-min Rain = 0
KCL1 102107Z 23007KT 13/M05 A3024 RMK A01 T01301050  RH  028%=      5-min Rain = 0
KCL1 102108Z 25006KT 13/M05 A3024 RMK A01 T01291051  RH  028%=      5-min Rain = 0
KCL1 102109Z 25006KT 13/M05 A3024 RMK A01 T01291050  RH  028%=      5-min Rain = 0
KCL1 102110Z 24007KT 13/M05 A3024 RMK A01 T01301049  RH  028%=      5-min Rain = 0
KCL1 102111Z 22004KT 13/M05 A3024 RMK A01 T01321050  RH  028%=      5-min Rain = 0
KCL1 102112Z 22006KT 13/M05 A3024 RMK A01 T01311053  RH  027%=      5-min Rain = 0
KCL1 102113Z 22005KT 13/M05 A3024 RMK A01 T01311053  RH  027%=      5-min Rain = 0
KCL1 102114Z 22006KT 13/M05 A3024 RMK A01 T01311054  RH  027%=      5-min Rain = 0
KCL1 102115Z 21006KT 13/M05 A3024 RMK A01 T01311052  RH  027%=      5-min Rain = 0
KCL1 102116Z 24005KT 13/M05 A3024 RMK A01 T01331054  RH  027%=      5-min Rain = 0
KCL1 102117Z 24005KT 13/M06 A3024 RMK A01 T01341056  RH  026%=      5-min Rain = 0
KCL1 102118Z 24006KT 13/M06 A3024 RMK A01 T01341058  RH  026%=      5-min Rain = 0
KCL1 102119Z 26008KT 13/M06 A3024 RMK A01 T01331056  RH  026%=      5-min Rain = 0
KCL1 102120Z 25008KT 13/M06 A3024 RMK A01 T01331055  RH  027%=      5-min Rain = 0
KCL1 102121Z 25005KT 13/M06 A3024 RMK A01 T01331056  RH  026%=      5-min Rain = 0
KCL1 102122Z 25006KT 13/M06 A3024 RMK A01 T01331055  RH  027%=      5-min Rain = 0
KCL1 102123Z 26005KT 13/M06 A3024 RMK A01 T01331056  RH  026%=      5-min Rain = 0
KCL1 102124Z 28005KT 13/M06 A3024 RMK A01 T01331056  RH  026%=      5-min Rain = 0
KCL1 102125Z 28003KT 13/M06 A3024 RMK A01 T01331057  RH  026%=      5-min Rain = 0
KCL1 102126Z 26004KT 13/M06 A3024 RMK A01 T01321056  RH  027%=      5-min Rain = 0
KCL1 102127Z 27004KT 13/M06 A3024 RMK A01 T01321057  RH  026%=      5-min Rain = 0
KCL1 102128Z 27003KT 13/M06 A3024 RMK A01 T01321056  RH  026%=      5-min Rain = 0
KCL1 102129Z 24004KT 13/M06 A3024 RMK A01 T01341055  RH  027%=      5-min Rain = 0
KCL1 102130Z 23004KT 14/M05 A3024 RMK A01 T01351053  RH  027%=      5-min Rain = 0
KCL1 102131Z 20005KT 14/M05 A3024 RMK A01 T01351053  RH  027%=      5-min Rain = 0
KCL1 102132Z 19003KT 13/M05 A3024 RMK A01 T01341053  RH  027%=      5-min Rain = 0
KCL1 102133Z 18003KT 13/M05 A3024 RMK A01 T01321054  RH  027%=      5-min Rain = 0
KCL1 102134Z 18005KT 13/M05 A3024 RMK A01 T01321053  RH  027%=      5-min Rain = 0
KCL1 102135Z 18005KT 13/M05 A3024 RMK A01 T01341054  RH  027%=      5-min Rain = 0
KCL1 102136Z 19004KT 13/M06 A3024 RMK A01 T01341057  RH  026%=      5-min Rain = 0
KCL1 102137Z 20004KT 13/M06 A3024 RMK A01 T01341058  RH  026%=      5-min Rain = 0
KCL1 102138Z 19006KT 13/M06 A3024 RMK A01 T01331057  RH  026%=      5-min Rain = 0
KCL1 102139Z 18005KT 13/M06 A3024 RMK A01 T01331057  RH  026%=      5-min Rain = 0
KCL1 102140Z 20004KT 13/M06 A3024 RMK A01 T01341056  RH  026%=      5-min Rain = 0
KCL1 102141Z 21004KT 13/M06 A3024 RMK A01 T01341056  RH  026%=      5-min Rain = 0
KCL1 102142Z 22002KT 13/M06 A3024 RMK A01 T01341057  RH  026%=      5-min Rain = 0
KCL1 102143Z 16003KT 13/M06 A3024 RMK A01 T01331057  RH  026%=      5-min Rain = 0
KCL1 102144Z 15003KT 13/M06 A3024 RMK A01 T01331059  RH  026%=      5-min Rain = 0
KCL1 102145Z 17002KT 13/M06 A3024 RMK A01 T01331060  RH  025%=      5-min Rain = 0
KCL1 102146Z 19002KT 13/M06 A3024 RMK A01 T01341060  RH  025%=      5-min Rain = 0
KCL1 102147Z 20005KT 14/M06 A3024 RMK A01 T01361058  RH  026%=      5-min Rain = 0
KCL1 102148Z 22005KT 14/M06 A3024 RMK A01 T01371063  RH  024%=      5-min Rain = 0
KCL1 102149Z 22002KT 14/M07 A3024 RMK A01 T01381074  RH  022%=      5-min Rain = 0
KCL1 102150Z 21003KT 14/M08 A3024 RMK A01 T01381077  RH  022%=      5-min Rain = 0
KCL1 102151Z 22007KT 14/M08 A3024 RMK A01 T01381079  RH  021%=      5-min Rain = 0
KCL1 102152Z 24006KT 14/M08 A3024 RMK A01 T01381082  RH  021%=      5-min Rain = 0
KCL1 102153Z 23007KT 14/M08 A3024 RMK A01 T01381084  RH  021%=      5-min Rain = 0
KCL1 102154Z 22006KT 14/M09 A3024 RMK A01 T01371085  RH  021%=      5-min Rain = 0
KCL1 102155Z 23007KT 14/M09 A3024 RMK A01 T01371086  RH  021%=      5-min Rain = 0
KCL1 102156Z 24005KT 14/M09 A3024 RMK A01 T01361087  RH  020%=      5-min Rain = 0
KCL1 102157Z 25004KT 14/M09 A3024 RMK A01 T01351087  RH  020%=      5-min Rain = 0
KCL1 102158Z 27003KT 14/M09 A3024 RMK A01 T01361087  RH  020%=      5-min Rain = 0
KCL1 102159Z 26002KT 14/M09 A3024 RMK A01 T01371085  RH  021%=      5-min Rain = 0
KCL1 102200Z 27003KT 14/M08 A3024 RMK A01 T01381082  RH  021%=      5-min Rain = 0
KCL1 102201Z 28005KT 14/M08 A3024 RMK A01 T01391083  RH  021%=      5-min Rain = 0
KCL1 102202Z 27005KT 14/M09 A3024 RMK A01 T01401086  RH  020%=      5-min Rain = 0
KCL1 102203Z 26007KT 14/M09 A3024 RMK A01 T01391090  RH  020%=      5-min Rain = 0
KCL1 102204Z 26005KT 14/M10 A3024 RMK A01 T01371096  RH  019%=      5-min Rain = 0
KCL1 102205Z 27004KT 14/M09 A3024 RMK A01 T01371092  RH  019%=      5-min Rain = 0
KCL1 102206Z 29003KT 14/M09 A3023 RMK A01 T01381090  RH  020%=      5-min Rain = 0
KCL1 102207Z 27003KT 14/M09 A3023 RMK A01 T01381093  RH  019%=      5-min Rain = 0
KCL1 102208Z 25005KT 14/M09 A3023 RMK A01 T01381094  RH  019%=      5-min Rain = 0
KCL1 102209Z 25005KT 14/M09 A3023 RMK A01 T01371094  RH  019%=      5-min Rain = 0
KCL1 102210Z 25006KT 14/M09 A3023 RMK A01 T01371094  RH  019%=      5-min Rain = 0
KCL1 102211Z 25006KT 14/M10 A3024 RMK A01 T01371095  RH  019%=      5-min Rain = 0
KCL1 102212Z 24005KT 14/M10 A3024 RMK A01 T01371095  RH  019%=      5-min Rain = 0
KCL1 102213Z 23004KT 14/M10 A3024 RMK A01 T01371096  RH  019%=      5-min Rain = 0
KCL1 102214Z 25004KT 14/M10 A3024 RMK A01 T01361098  RH  019%=      5-min Rain = 0
KCL1 102215Z 25005KT 14/M10 A3024 RMK A01 T01361095  RH  019%=      5-min Rain = 0
KCL1 102216Z 28005KT 14/M09 A3024 RMK A01 T01361094  RH  019%=      5-min Rain = 0
KCL1 102217Z 28005KT 14/M09 A3024 RMK A01 T01361094  RH  019%=      5-min Rain = 0
KCL1 102218Z 28004KT 14/M09 A3024 RMK A01 T01361094  RH  019%=      5-min Rain = 0
KCL1 102219Z 25004KT 14/M09 A3024 RMK A01 T01361093  RH  020%=      5-min Rain = 0
KCL1 102220Z 24005KT 14/M09 A3024 RMK A01 T01351094  RH  020%=      5-min Rain = 0
KCL1 102221Z 24004KT 14/M10 A3024 RMK A01 T01351095  RH  019%=      5-min Rain = 0
KCL1 102222Z 25004KT 14/M10 A3024 RMK A01 T01351095  RH  019%=      5-min Rain = 0
KCL1 102223Z 25003KT 14/M10 A3024 RMK A01 T01351095  RH  019%=      5-min Rain = 0
KCL1 102224Z 25002KT 14/M10 A3024 RMK A01 T01361096  RH  019%=      5-min Rain = 0
KCL1 102225Z 24001KT 14/M10 A3024 RMK A01 T01361096  RH  019%=      5-min Rain = 0
KCL1 102226Z 25003KT 14/M09 A3024 RMK A01 T01371093  RH  019%=      5-min Rain = 0
KCL1 102227Z 25005KT 14/M09 A3024 RMK A01 T01391091  RH  019%=      5-min Rain = 0
KCL1 102228Z 22004KT 14/M09 A3023 RMK A01 T01381094  RH  019%=      5-min Rain = 0
KCL1 102229Z 23003KT 14/M10 A3023 RMK A01 T01371097  RH  019%=      5-min Rain = 0
KCL1 102230Z 21003KT 14/M09 A3023 RMK A01 T01361094  RH  019%=      5-min Rain = 0
KCL1 102231Z 21003KT 14/M09 A3023 RMK A01 T01371093  RH  019%=      5-min Rain = 0
KCL1 102232Z 23003KT 14/M09 A3024 RMK A01 T01371094  RH  019%=      5-min Rain = 0
KCL1 102233Z 26005KT 14/M09 A3024 RMK A01 T01371094  RH  019%=      5-min Rain = 0
KCL1 102234Z 25004KT 14/M09 A3024 RMK A01 T01361094  RH  019%=      5-min Rain = 0
KCL1 102235Z 23004KT 14/M09 A3024 RMK A01 T01351094  RH  019%=      5-min Rain = 0
KCL1 102236Z 21005KT 13/M09 A3024 RMK A01 T01341093  RH  020%=      5-min Rain = 0
KCL1 102237Z 21006KT 13/M09 A3024 RMK A01 T01341093  RH  020%=      5-min Rain = 0
KCL1 102238Z 21005KT 13/M09 A3024 RMK A01 T01341094  RH  019%=      5-min Rain = 0
KCL1 102239Z 21006KT 13/M10 A3024 RMK A01 T01341096  RH  019%=      5-min Rain = 0
KCL1 102240Z 21005KT 13/M10 A3024 RMK A01 T01331096  RH  019%=      5-min Rain = 0
KCL1 102241Z 20004KT 13/M10 A3024 RMK A01 T01331096  RH  019%=      5-min Rain = 0
KCL1 102242Z 20003KT 13/M10 A3024 RMK A01 T01331096  RH  019%=      5-min Rain = 0
KCL1 102243Z 21002KT 13/M10 A3024 RMK A01 T01331097  RH  019%=      5-min Rain = 0
KCL1 102244Z 20003KT 13/M10 A3024 RMK A01 T01331095  RH  020%=      5-min Rain = 0
KCL1 102245Z 18003KT 13/M09 A3024 RMK A01 T01331094  RH  020%=      5-min Rain = 0
KCL1 102246Z 20002KT 13/M10 A3024 RMK A01 T01331096  RH  019%=      5-min Rain = 0
KCL1 102247Z 21003KT 13/M10 A3024 RMK A01 T01331096  RH  019%=      5-min Rain = 0
KCL1 102248Z 23003KT 13/M10 A3024 RMK A01 T01331095  RH  020%=      5-min Rain = 0
KCL1 102249Z 24003KT 13/M09 A3024 RMK A01 T01331093  RH  020%=      5-min Rain = 0
KCL1 102250Z 24003KT 13/M09 A3024 RMK A01 T01331093  RH  020%=      5-min Rain = 0
KCL1 102251Z 23003KT 13/M09 A3024 RMK A01 T01321093  RH  020%=      5-min Rain = 0
KCL1 102252Z 23002KT 13/M10 A3024 RMK A01 T01321095  RH  020%=      5-min Rain = 0
KCL1 102253Z 21002KT 13/M09 A3024 RMK A01 T01321094  RH  020%=      5-min Rain = 0
KCL1 102254Z 21001KT 13/M09 A3024 RMK A01 T01311094  RH  020%=      5-min Rain = 0
KCL1 102255Z 21001KT 13/M09 A3024 RMK A01 T01311093  RH  020%=      5-min Rain = 0
KCL1 102256Z 21002KT 13/M09 A3024 RMK A01 T01311093  RH  020%=      5-min Rain = 0
KCL1 102257Z 21002KT 13/M09 A3024 RMK A01 T01311094  RH  020%=      5-min Rain = 0
KCL1 102258Z 21002KT 13/M09 A3024 RMK A01 T01311094  RH  020%=      5-min Rain = 0
KCL1 102259Z 23002KT 13/M09 A3024 RMK A01 T01311093  RH  020%=      5-min Rain = 0
KCL1 102300Z 26001KT 13/M09 A3024 RMK A01 T01311093  RH  020%=      5-min Rain = 0
KCL1 102301Z 24001KT 13/M09 A3024 RMK A01 T01311092  RH  020%=      5-min Rain = 0
KCL1 102302Z 27001KT 13/M09 A3024 RMK A01 T01311092  RH  020%=      5-min Rain = 0
KCL1 102303Z 00000KT 13/M09 A3024 RMK A01 T01311091  RH  020%=      5-min Rain = 0
KCL1 102304Z 00000KT 13/M09 A3024 RMK A01 T01311091  RH  021%=      5-min Rain = 0
KCL1 102305Z 00000KT 13/M09 A3024 RMK A01 T01301091  RH  020%=      5-min Rain = 0
KCL1 102306Z 17000KT 13/M09 A3024 RMK A01 T01291093  RH  020%=      5-min Rain = 0
KCL1 102307Z 16001KT 13/M09 A3024 RMK A01 T01281093  RH  021%=      5-min Rain = 0
KCL1 102308Z 14002KT 13/M09 A3024 RMK A01 T01261092  RH  021%=      5-min Rain = 0
KCL1 102309Z 14003KT 12/M09 A3024 RMK A01 T01231093  RH  021%=      5-min Rain = 0
KCL1 102310Z 15003KT 12/M09 A3024 RMK A01 T01211092  RH  022%=      5-min Rain = 0
KCL1 102311Z 15003KT 12/M09 A3024 RMK A01 T01191091  RH  022%=      5-min Rain = 0
KCL1 102312Z 16003KT 12/M09 A3024 RMK A01 T01171091  RH  022%=      5-min Rain = 0
KCL1 102313Z 16004KT 12/M09 A3024 RMK A01 T01161091  RH  023%=      5-min Rain = 0
KCL1 102314Z 16004KT 12/M09 A3024 RMK A01 T01161090  RH  023%=      5-min Rain = 0
KCL1 102315Z 16004KT 12/M09 A3024 RMK A01 T01151090  RH  023%=      5-min Rain = 0
KCL1 102316Z 16003KT 12/M09 A3024 RMK A01 T01151089  RH  023%=      5-min Rain = 0
KCL1 102317Z 16004KT 11/M09 A3024 RMK A01 T01131090  RH  023%=      5-min Rain = 0
KCL1 102318Z 17005KT 11/M09 A3024 RMK A01 T01121090  RH  023%=      5-min Rain = 0
KCL1 102319Z 17004KT 11/M09 A3024 RMK A01 T01111089  RH  024%=      5-min Rain = 0
KCL1 102320Z 17004KT 11/M09 A3024 RMK A01 T01101089  RH  024%=      5-min Rain = 0
KCL1 102321Z 17004KT 11/M09 A3024 RMK A01 T01091089  RH  024%=      5-min Rain = 0
KCL1 102322Z 18005KT 11/M09 A3024 RMK A01 T01081089  RH  024%=      5-min Rain = 0
KCL1 102323Z 16006KT 11/M09 A3024 RMK A01 T01081088  RH  024%=      5-min Rain = 0
KCL1 102324Z 16006KT 11/M08 A3024 RMK A01 T01061083  RH  026%=      5-min Rain = 0
KCL1 102325Z 15005KT 10/M08 A3024 RMK A01 T01041077  RH  027%=      5-min Rain = 0
KCL1 102326Z 14006KT 10/M08 A3024 RMK A01 T01011075  RH  028%=      5-min Rain = 0
KCL1 102327Z 14008KT 10/M08 A3024 RMK A01 T00981077  RH  028%=      5-min Rain = 0
KCL1 102328Z 14009KT 10/M07 A3024 RMK A01 T00951072  RH  030%=      5-min Rain = 0
KCL1 102329Z 14009KT 09/M06 A3024 RMK A01 T00941060  RH  033%=      5-min Rain = 0
KCL1 102330Z 14008KT 10/M05 A3024 RMK A01 T00951053  RH  035%=      5-min Rain = 0
KCL1 102331Z 14008KT 10/M05 A3024 RMK A01 T00951051  RH  035%=      5-min Rain = 0
KCL1 102332Z 14010KT 10/M05 A3024 RMK A01 T00951047  RH  036%=      5-min Rain = 0
KCL1 102333Z 14009KT 10/M05 A3024 RMK A01 T00951045  RH  037%=      5-min Rain = 0
KCL1 102334Z 14008KT 10/M04 A3024 RMK A01 T00951044  RH  037%=      5-min Rain = 0
KCL1 102335Z 14009KT 10/M04 A3024 RMK A01 T00951043  RH  037%=      5-min Rain = 0
KCL1 102336Z 14008KT 09/M04 A3024 RMK A01 T00941044  RH  038%=      5-min Rain = 0
KCL1 102337Z 14009KT 09/M04 A3024 RMK A01 T00921043  RH  038%=      5-min Rain = 0
KCL1 102338Z 15009KT 09/M04 A3024 RMK A01 T00911042  RH  039%=      5-min Rain = 0
KCL1 102339Z 15008KT 09/M04 A3024 RMK A01 T00911042  RH  039%=      5-min Rain = 0
KCL1 102340Z 15008KT 09/M04 A3024 RMK A01 T00901042  RH  039%=      5-min Rain = 0
KCL1 102341Z 15009KT 09/M04 A3024 RMK A01 T00891042  RH  039%=      5-min Rain = 0
KCL1 102342Z 15009KT 09/M04 A3024 RMK A01 T00881041  RH  040%=      5-min Rain = 0
KCL1 102343Z 15009KT 09/M04 A3024 RMK A01 T00871041  RH  040%=      5-min Rain = 0
KCL1 102344Z 15008KT 09/M04 A3024 RMK A01 T00871041  RH  040%=      5-min Rain = 0
KCL1 102345Z 15008KT 09/M04 A3024 RMK A01 T00871040  RH  040%=      5-min Rain = 0
KCL1 102346Z 15008KT 09/M04 A3024 RMK A01 T00861040  RH  041%=      5-min Rain = 0
KCL1 102347Z 14009KT 09/M04 A3024 RMK A01 T00861040  RH  041%=      5-min Rain = 0
KCL1 102348Z 14009KT 09/M04 A3024 RMK A01 T00861039  RH  041%=      5-min Rain = 0
KCL1 102349Z 15009KT 09/M04 A3024 RMK A01 T00861039  RH  041%=      5-min Rain = 0
KCL1 102350Z 15009KT 09/M04 A3024 RMK A01 T00871039  RH  041%=      5-min Rain = 0
KCL1 102351Z 15010KT 09/M04 A3024 RMK A01 T00861039  RH  041%=      5-min Rain = 0
KCL1 102352Z 16009KT 09/M04 A3024 RMK A01 T00861040  RH  041%=      5-min Rain = 0
KCL1 102353Z 15008KT 09/M04 A3024 RMK A01 T00861039  RH  041%=      5-min Rain = 0
KCL1 102354Z 15009KT 09/M04 A3024 RMK A01 T00851039  RH  041%=      5-min Rain = 0
KCL1 102355Z 15009KT 08/M04 A3024 RMK A01 T00841039  RH  041%=      5-min Rain = 0
KCL1 102356Z 15008KT 08/M04 A3024 RMK A01 T00841039  RH  042%=      5-min Rain = 0
KCL1 102357Z 16007KT 08/M04 A3024 RMK A01 T00831039  RH  042%=      5-min Rain = 0
KCL1 102358Z 15007KT 08/M04 A3024 RMK A01 T00821040  RH  042%=      5-min Rain = 0
KCL1 102359Z 16007KT 08/M04 A3024 RMK A01 T00811040  RH  042%=      5-min Rain = 0
KCL1 110000Z 15007KT 08/M04 A3024 RMK A01 T00791040  RH  042%=      5-min Rain = 0
KCL1 110001Z 15007KT 08/M04 A3024 RMK A01 T00781041  RH  043%=      5-min Rain = 0
KCL1 110002Z 16007KT 08/M04 A3024 RMK A01 T00771041  RH  043%=      5-min Rain = 0
KCL1 110003Z 16008KT 08/M04 A3024 RMK A01 T00761040  RH  043%=      5-min Rain = 0
KCL1 110004Z 16008KT 08/M04 A3024 RMK A01 T00761040  RH  044%=      5-min Rain = 0
KCL1 110005Z 16008KT 08/M04 A3024 RMK A01 T00761039  RH  044%=      5-min Rain = 0
KCL1 110006Z 15008KT 08/M04 A3024 RMK A01 T00771038  RH  044%=      5-min Rain = 0
KCL1 110007Z 15008KT 08/M04 A3024 RMK A01 T00771039  RH  044%=      5-min Rain = 0
KCL1 110008Z 15009KT 08/M04 A3024 RMK A01 T00771037  RH  044%=      5-min Rain = 0
KCL1 110009Z 14008KT 08/M04 A3024 RMK A01 T00781035  RH  044%=      5-min Rain = 0
KCL1 110010Z 14008KT 08/M04 A3024 RMK A01 T00791036  RH  044%=      5-min Rain = 0
KCL1 110011Z 14008KT 08/M04 A3024 RMK A01 T00791036  RH  044%=      5-min Rain = 0
KCL1 110012Z 14009KT 08/M04 A3024 RMK A01 T00771036  RH  045%=      5-min Rain = 0
KCL1 110013Z 13009KT 08/M03 A3024 RMK A01 T00761034  RH  045%=      5-min Rain = 0
KCL1 110014Z 13009KT 07/M03 A3024 RMK A01 T00741034  RH  046%=      5-min Rain = 0
KCL1 110015Z 13009KT 07/M03 A3024 RMK A01 T00741032  RH  047%=      5-min Rain = 0
KCL1 110016Z 13009KT 07/M03 A3024 RMK A01 T00731031  RH  048%=      5-min Rain = 0
KCL1 110017Z 14009KT 07/M03 A3024 RMK A01 T00731030  RH  048%=      5-min Rain = 0
KCL1 110018Z 15007KT 07/M03 A3024 RMK A01 T00721030  RH  048%=      5-min Rain = 0
KCL1 110019Z 15007KT 07/M03 A3025 RMK A01 T00711031  RH  048%=      5-min Rain = 0
KCL1 110020Z 15008KT 07/M03 A3025 RMK A01 T00701031  RH  049%=      5-min Rain = 0
KCL1 110021Z 16008KT 07/M03 A3025 RMK A01 T00701030  RH  049%=      5-min Rain = 0
KCL1 110022Z 15008KT 07/M03 A3024 RMK A01 T00701029  RH  049%=      5-min Rain = 0
KCL1 110023Z 15007KT 07/M03 A3025 RMK A01 T00711028  RH  049%=      5-min Rain = 0
KCL1 110024Z 16006KT 07/M03 A3024 RMK A01 T00711028  RH  049%=      5-min Rain = 0
KCL1 110025Z 16006KT 07/M03 A3024 RMK A01 T00711028  RH  049%=      5-min Rain = 0
KCL1 110026Z 16007KT 07/M03 A3024 RMK A01 T00711027  RH  050%=      5-min Rain = 0
KCL1 110027Z 15007KT 07/M03 A3024 RMK A01 T00711027  RH  050%=      5-min Rain = 0
KCL1 110028Z 15006KT 07/M03 A3024 RMK A01 T00711026  RH  050%=      5-min Rain = 0
KCL1 110029Z 16008KT 07/M03 A3024 RMK A01 T00711025  RH  050%=      5-min Rain = 0
KCL1 110030Z 16008KT 07/M02 A3024 RMK A01 T00711024  RH  051%=      5-min Rain = 0
KCL1 110031Z 16007KT 07/M02 A3024 RMK A01 T00711023  RH  051%=      5-min Rain = 0
KCL1 110032Z 15007KT 07/M02 A3024 RMK A01 T00721022  RH  051%=      5-min Rain = 0
KCL1 110033Z 15007KT 07/M02 A3024 RMK A01 T00721021  RH  051%=      5-min Rain = 0
KCL1 110034Z 15008KT 07/M02 A3024 RMK A01 T00721021  RH  052%=      5-min Rain = 0
KCL1 110035Z 15007KT 07/M02 A3024 RMK A01 T00721019  RH  052%=      5-min Rain = 0
KCL1 110036Z 15009KT 07/M02 A3024 RMK A01 T00721018  RH  053%=      5-min Rain = 0
KCL1 110037Z 15007KT 07/M02 A3024 RMK A01 T00711017  RH  054%=      5-min Rain = 0
KCL1 110038Z 15007KT 07/M02 A3024 RMK A01 T00711017  RH  054%=      5-min Rain = 0
KCL1 110039Z 16007KT 07/M02 A3024 RMK A01 T00701016  RH  054%=      5-min Rain = 0
KCL1 110040Z 16009KT 07/M01 A3024 RMK A01 T00691014  RH  055%=      5-min Rain = 0
KCL1 110041Z 16008KT 07/M01 A3024 RMK A01 T00691013  RH  056%=      5-min Rain = 0
KCL1 110042Z 16008KT 07/M01 A3024 RMK A01 T00691012  RH  056%=      5-min Rain = 0
KCL1 110043Z 16006KT 07/M01 A3024 RMK A01 T00691012  RH  056%=      5-min Rain = 0
KCL1 110044Z 15007KT 07/M01 A3024 RMK A01 T00691012  RH  056%=      5-min Rain = 0
KCL1 110045Z 15007KT 07/M01 A3024 RMK A01 T00681012  RH  057%=      5-min Rain = 0
KCL1 110046Z 16007KT 07/M01 A3024 RMK A01 T00681011  RH  057%=      5-min Rain = 0
KCL1 110047Z 15008KT 07/M01 A3024 RMK A01 T00681011  RH  057%=      5-min Rain = 0
KCL1 110048Z 16008KT 07/M01 A3024 RMK A01 T00681010  RH  058%=      5-min Rain = 0
KCL1 110049Z 16008KT 07/M01 A3024 RMK A01 T00691009  RH  058%=      5-min Rain = 0
KCL1 110050Z 15008KT 07/M01 A3024 RMK A01 T00691009  RH  057%=      5-min Rain = 0
KCL1 110051Z 15008KT 07/M01 A3024 RMK A01 T00701008  RH  058%=      5-min Rain = 0
KCL1 110052Z 15008KT 07/M01 A3024 RMK A01 T00691009  RH  058%=      5-min Rain = 0
KCL1 110053Z 14008KT 07/M01 A3024 RMK A01 T00671009  RH  058%=      5-min Rain = 0
KCL1 110054Z 14008KT 07/M01 A3024 RMK A01 T00671008  RH  059%=      5-min Rain = 0
KCL1 110055Z 14007KT 07/M01 A3024 RMK A01 T00671008  RH  059%=      5-min Rain = 0
KCL1 110056Z 14007KT 07/M01 A3024 RMK A01 T00661009  RH  059%=      5-min Rain = 0
KCL1 110057Z 14007KT 07/M01 A3024 RMK A01 T00651009  RH  059%=      5-min Rain = 0
KCL1 110058Z 14007KT 06/M01 A3024 RMK A01 T00641009  RH  060%=      5-min Rain = 0
KCL1 110059Z 14007KT 06/M01 A3024 RMK A01 T00631008  RH  060%=      5-min Rain = 0
KCL1 110100Z 14006KT 06/M01 A3024 RMK A01 T00631008  RH  060%=      5-min Rain = 0
KCL1 110101Z 15007KT 06/M01 A3024 RMK A01 T00621009  RH  061%=      5-min Rain = 0
KCL1 110102Z 14007KT 06/M01 A3024 RMK A01 T00611008  RH  061%=      5-min Rain = 0
KCL1 110103Z 14007KT 06/M01 A3024 RMK A01 T00601009  RH  061%=      5-min Rain = 0
KCL1 110104Z 14007KT 06/M01 A3024 RMK A01 T00601008  RH  062%=      5-min Rain = 0
KCL1 110105Z 14007KT 06/M01 A3024 RMK A01 T00601008  RH  062%=      5-min Rain = 0
KCL1 110106Z 14008KT 06/M01 A3024 RMK A01 T00591007  RH  062%=      5-min Rain = 0
KCL1 110107Z 15007KT 06/M01 A3024 RMK A01 T00601007  RH  062%=      5-min Rain = 0
KCL1 110108Z 14007KT 06/M01 A3024 RMK A01 T00601007  RH  062%=      5-min Rain = 0
KCL1 110109Z 14007KT 06/M01 A3024 RMK A01 T00601006  RH  062%=      5-min Rain = 0
KCL1 110110Z 14007KT 06/M01 A3024 RMK A01 T00601006  RH  063%=      5-min Rain = 0
KCL1 110111Z 14008KT 06/M01 A3024 RMK A01 T00601006  RH  063%=      5-min Rain = 0
KCL1 110112Z 14007KT 06/M01 A3024 RMK A01 T00601005  RH  063%=      5-min Rain = 0
KCL1 110113Z 13008KT 06/M01 A3024 RMK A01 T00601005  RH  063%=      5-min Rain = 0
KCL1 110114Z 14008KT 06/M01 A3024 RMK A01 T00601005  RH  063%=      5-min Rain = 0
KCL1 110115Z 13007KT 06/M00 A3024 RMK A01 T00601004  RH  063%=      5-min Rain = 0
KCL1 110116Z 13008KT 06/M00 A3024 RMK A01 T00601004  RH  063%=      5-min Rain = 0
KCL1 110117Z 13009KT 06/M00 A3024 RMK A01 T00601004  RH  063%=      5-min Rain = 0
KCL1 110118Z 14009KT 06/M00 A3024 RMK A01 T00601003  RH  064%=      5-min Rain = 0
KCL1 110119Z 14008KT 06/M00 A3024 RMK A01 T00611003  RH  064%=      5-min Rain = 0
KCL1 110120Z 15007KT 06/M00 A3024 RMK A01 T00601003  RH  064%=      5-min Rain = 0
KCL1 110121Z 16006KT 06/M00 A3024 RMK A01 T00591003  RH  064%=      5-min Rain = 0
KCL1 110122Z 16006KT 06/M00 A3024 RMK A01 T00591003  RH  064%=      5-min Rain = 0
KCL1 110123Z 16007KT 06/M00 A3024 RMK A01 T00591003  RH  064%=      5-min Rain = 0
KCL1 110124Z 16007KT 06/M00 A3024 RMK A01 T00591003  RH  065%=      5-min Rain = 0
KCL1 110125Z 15007KT 06/M00 A3024 RMK A01 T00581002  RH  065%=      5-min Rain = 0
KCL1 110126Z 16008KT 06/M00 A3024 RMK A01 T00581002  RH  065%=      5-min Rain = 0
KCL1 110127Z 16006KT 06/M00 A3024 RMK A01 T00591002  RH  065%=      5-min Rain = 0
KCL1 110128Z 15008KT 06/M00 A3024 RMK A01 T00591001  RH  065%=      5-min Rain = 0
KCL1 110129Z 15007KT 06/00 A3024 RMK A01 T006000-0  RH  065%=      5-min Rain = 0
KCL1 110130Z 16006KT 06/00 A3024 RMK A01 T006100-0  RH  065%=      5-min Rain = 0
KCL1 110131Z 16006KT 06/M00 A3025 RMK A01 T00611001  RH  065%=      5-min Rain = 0
KCL1 110132Z 16007KT 06/M00 A3025 RMK A01 T00611001  RH  065%=      5-min Rain = 0
KCL1 110133Z 15007KT 06/M00 A3025 RMK A01 T00611001  RH  065%=      5-min Rain = 0
KCL1 110134Z 15008KT 06/M00 A3024 RMK A01 T00601001  RH  065%=      5-min Rain = 0
KCL1 110135Z 15008KT 06/00 A3024 RMK A01 T00610000  RH  065%=      5-min Rain = 0
KCL1 110136Z 15008KT 06/00 A3025 RMK A01 T006100-0  RH  065%=      5-min Rain = 0
KCL1 110137Z 15007KT 06/M00 A3025 RMK A01 T00601001  RH  065%=      5-min Rain = 0
KCL1 110138Z 14008KT 06/M00 A3025 RMK A01 T00591001  RH  065%=      5-min Rain = 0
KCL1 110139Z 14008KT 06/M00 A3025 RMK A01 T00581001  RH  066%=      5-min Rain = 0
KCL1 110140Z 15008KT 06/M00 A3025 RMK A01 T00571001  RH  066%=      5-min Rain = 0
KCL1 110141Z 15007KT 06/M00 A3025 RMK A01 T00561002  RH  066%=      5-min Rain = 0
KCL1 110142Z 15007KT 06/M00 A3025 RMK A01 T00561002  RH  066%=      5-min Rain = 0
KCL1 110143Z 14007KT 05/M00 A3025 RMK A01 T00541002  RH  067%=      5-min Rain = 0
KCL1 110144Z 15007KT 05/M00 A3025 RMK A01 T00541002  RH  067%=      5-min Rain = 0
KCL1 110145Z 15007KT 05/M00 A3025 RMK A01 T00531003  RH  067%=      5-min Rain = 0
KCL1 110146Z 15008KT 05/M00 A3025 RMK A01 T00521003  RH  068%=      5-min Rain = 0
KCL1 110147Z 14007KT 05/M00 A3024 RMK A01 T00521002  RH  068%=      5-min Rain = 0
KCL1 110148Z 14007KT 05/M00 A3024 RMK A01 T00521002  RH  068%=      5-min Rain = 0
KCL1 110149Z 14008KT 05/M00 A3024 RMK A01 T00521001  RH  069%=      5-min Rain = 0
KCL1 110150Z 14008KT 05/M00 A3024 RMK A01 T00521001  RH  069%=      5-min Rain = 0
KCL1 110151Z 14008KT 05/00 A3024 RMK A01 T005100-0  RH  069%=      5-min Rain = 0
KCL1 110152Z 14008KT 05/00 A3024 RMK A01 T00510000  RH  069%=      5-min Rain = 0
KCL1 110153Z 14008KT 05/00 A3024 RMK A01 T00510001  RH  070%=      5-min Rain = 0
KCL1 110154Z 14008KT 05/00 A3024 RMK A01 T00510001  RH  070%=      5-min Rain = 0
KCL1 110155Z 14008KT 05/00 A3024 RMK A01 T00510000  RH  070%=      5-min Rain = 0
KCL1 110156Z 14009KT 05/00 A3024 RMK A01 T00500001  RH  070%=      5-min Rain = 0
KCL1 110157Z 14009KT 05/00 A3024 RMK A01 T00500001  RH  071%=      5-min Rain = 0
KCL1 110158Z 14008KT 05/00 A3024 RMK A01 T00500001  RH  071%=      5-min Rain = 0
KCL1 110159Z 14008KT 05/00 A3024 RMK A01 T00500001  RH  071%=      5-min Rain = 0
KCL1 110200Z 14008KT 05/00 A3024 RMK A01 T00500001  RH  071%=      5-min Rain = 0
KCL1 110201Z 14009KT 05/00 A3024 RMK A01 T00500001  RH  071%=      5-min Rain = 0
KCL1 110202Z 15008KT 05/00 A3024 RMK A01 T00500001  RH  071%=      5-min Rain = 0
KCL1 110203Z 15008KT 05/00 A3024 RMK A01 T00500001  RH  071%=      5-min Rain = 0
KCL1 110204Z 15007KT 05/00 A3024 RMK A01 T00490000  RH  071%=      5-min Rain = 0
KCL1 110205Z 15008KT 05/00 A3024 RMK A01 T00480001  RH  071%=      5-min Rain = 0
KCL1 110206Z 15007KT 05/00 A3024 RMK A01 T00480000  RH  071%=      5-min Rain = 0
KCL1 110207Z 15007KT 05/00 A3024 RMK A01 T004700-0  RH  071%=      5-min Rain = 0
KCL1 110208Z 15007KT 05/M00 A3024 RMK A01 T00471001  RH  071%=      5-min Rain = 0
KCL1 110209Z 16007KT 05/M00 A3024 RMK A01 T00461001  RH  072%=      5-min Rain = 0
KCL1 110210Z 16007KT 05/M00 A3024 RMK A01 T00451001  RH  072%=      5-min Rain = 0
KCL1 110211Z 16007KT 05/M00 A3024 RMK A01 T00451002  RH  072%=      5-min Rain = 0
KCL1 110212Z 15008KT 04/M00 A3024 RMK A01 T00441002  RH  072%=      5-min Rain = 0
KCL1 110213Z 15008KT 04/M00 A3024 RMK A01 T00441002  RH  072%=      5-min Rain = 0
KCL1 110214Z 15007KT 04/M00 A3024 RMK A01 T00431002  RH  072%=      5-min Rain = 0
KCL1 110215Z 14007KT 04/M00 A3024 RMK A01 T00431002  RH  072%=      5-min Rain = 0
KCL1 110216Z 15007KT 04/M00 A3024 RMK A01 T00431002  RH  072%=      5-min Rain = 0
KCL1 110217Z 15007KT 04/M00 A3024 RMK A01 T00431002  RH  072%=      5-min Rain = 0
KCL1 110218Z 15007KT 04/M00 A3024 RMK A01 T00431003  RH  072%=      5-min Rain = 0
KCL1 110219Z 15006KT 04/M00 A3024 RMK A01 T00421003  RH  073%=      5-min Rain = 0
KCL1 110220Z 16006KT 04/M00 A3024 RMK A01 T00421002  RH  073%=      5-min Rain = 0
KCL1 110221Z 15006KT 04/M00 A3024 RMK A01 T00431002  RH  073%=      5-min Rain = 0
KCL1 110222Z 15006KT 04/M00 A3024 RMK A01 T00431002  RH  072%=      5-min Rain = 0
KCL1 110223Z 15006KT 04/M00 A3024 RMK A01 T00431002  RH  072%=      5-min Rain = 0
KCL1 110224Z 15006KT 04/M00 A3024 RMK A01 T00421003  RH  072%=      5-min Rain = 0
KCL1 110225Z 16006KT 04/M00 A3024 RMK A01 T00421002  RH  073%=      5-min Rain = 0
KCL1 110226Z 16006KT 04/M00 A3024 RMK A01 T00421002  RH  073%=      5-min Rain = 0
KCL1 110227Z 16006KT 04/M00 A3024 RMK A01 T00421002  RH  073%=      5-min Rain = 0
KCL1 110228Z 16006KT 04/M00 A3024 RMK A01 T00421002  RH  073%=      5-min Rain = 0
KCL1 110229Z 16006KT 04/M00 A3024 RMK A01 T00421002  RH  073%=      5-min Rain = 0
KCL1 110230Z 16006KT 04/M00 A3024 RMK A01 T00421002  RH  073%=      5-min Rain = 0
KCL1 110231Z 17006KT 04/M00 A3025 RMK A01 T00421002  RH  073%=      5-min Rain = 0
KCL1 110232Z 17006KT 04/M00 A3025 RMK A01 T00421002  RH  073%=      5-min Rain = 0
KCL1 110233Z 17006KT 04/M00 A3025 RMK A01 T00411002  RH  073%=      5-min Rain = 0
KCL1 110234Z 17006KT 04/M00 A3024 RMK A01 T00411002  RH  074%=      5-min Rain = 0
KCL1 110235Z 17006KT 04/M00 A3024 RMK A01 T00411002  RH  074%=      5-min Rain = 0
KCL1 110236Z 17006KT 04/M00 A3024 RMK A01 T00401003  RH  074%=      5-min Rain = 0
KCL1 110237Z 17006KT 04/M00 A3025 RMK A01 T00401003  RH  074%=      5-min Rain = 0
KCL1 110238Z 18006KT 04/M00 A3025 RMK A01 T00401002  RH  074%=      5-min Rain = 0
KCL1 110239Z 17005KT 04/M00 A3025 RMK A01 T00391002  RH  074%=      5-min Rain = 0
KCL1 110240Z 17005KT 04/M00 A3025 RMK A01 T00391002  RH  074%=      5-min Rain = 0
KCL1 110241Z 18005KT 04/M00 A3025 RMK A01 T00401002  RH  074%=      5-min Rain = 0
KCL1 110242Z 18005KT 04/M00 A3025 RMK A01 T00401002  RH  074%=      5-min Rain = 0
KCL1 110243Z 17006KT 04/M00 A3025 RMK A01 T00411001  RH  074%=      5-min Rain = 0
KCL1 110244Z 18006KT 04/M00 A3025 RMK A01 T00421001  RH  074%=      5-min Rain = 0
KCL1 110245Z 18007KT 04/M00 A3025 RMK A01 T00421002  RH  073%=      5-min Rain = 0
KCL1 110246Z 18006KT 04/M00 A3025 RMK A01 T00411002  RH  073%=      5-min Rain = 0
KCL1 110247Z 18006KT 04/M00 A3025 RMK A01 T00401004  RH  073%=      5-min Rain = 0
KCL1 110248Z 18006KT 04/M00 A3025 RMK A01 T00391004  RH  074%=      5-min Rain = 0
KCL1 110249Z 18007KT 04/M00 A3025 RMK A01 T00381003  RH  074%=      5-min Rain = 0
KCL1 110250Z 18007KT 04/M00 A3025 RMK A01 T00381003  RH  075%=      5-min Rain = 0
KCL1 110251Z 18007KT 04/M00 A3025 RMK A01 T00381003  RH  075%=      5-min Rain = 0
KCL1 110252Z 18008KT 04/M00 A3025 RMK A01 T00381003  RH  075%=      5-min Rain = 0
KCL1 110253Z 18007KT 04/M00 A3025 RMK A01 T00391002  RH  075%=      5-min Rain = 0
KCL1 110254Z 18007KT 04/M00 A3025 RMK A01 T00391002  RH  074%=      5-min Rain = 0
KCL1 110255Z 17008KT 04/M00 A3025 RMK A01 T00391002  RH  075%=      5-min Rain = 0
KCL1 110256Z 18008KT 04/M00 A3025 RMK A01 T00391002  RH  075%=      5-min Rain = 0
KCL1 110257Z 18007KT 04/M00 A3025 RMK A01 T00401001  RH  075%=      5-min Rain = 0
KCL1 110258Z 17007KT 04/M00 A3025 RMK A01 T00401001  RH  074%=      5-min Rain = 0
KCL1 110259Z 17007KT 04/M00 A3025 RMK A01 T00411001  RH  074%=      5-min Rain = 0
KCL1 110300Z 18007KT 04/M00 A3025 RMK A01 T00411001  RH  074%=      5-min Rain = 0
KCL1 110301Z 18007KT 04/M00 A3025 RMK A01 T00411002  RH  074%=      5-min Rain = 0
KCL1 110302Z 17007KT 04/M00 A3025 RMK A01 T00411003  RH  073%=      5-min Rain = 0
KCL1 110303Z 18008KT 04/M00 A3025 RMK A01 T00401003  RH  074%=      5-min Rain = 0
KCL1 110304Z 18008KT 04/M00 A3025 RMK A01 T00391003  RH  074%=      5-min Rain = 0
KCL1 110305Z 17007KT 04/M00 A3025 RMK A01 T00401002  RH  074%=      5-min Rain = 0
KCL1 110306Z 17007KT 04/M00 A3025 RMK A01 T00401002  RH  074%=      5-min Rain = 0
KCL1 110307Z 17007KT 04/M00 A3025 RMK A01 T00391003  RH  074%=      5-min Rain = 0
KCL1 110308Z 17007KT 04/M00 A3025 RMK A01 T00391004  RH  074%=      5-min Rain = 0
KCL1 110309Z 16008KT 04/M00 A3025 RMK A01 T00381004  RH  074%=      5-min Rain = 0
KCL1 110310Z 16008KT 04/M00 A3025 RMK A01 T00371003  RH  075%=      5-min Rain = 0
KCL1 110311Z 17008KT 04/M00 A3025 RMK A01 T00371003  RH  075%=      5-min Rain = 0
KCL1 110312Z 16008KT 04/M00 A3025 RMK A01 T00371003  RH  075%=      5-min Rain = 0
KCL1 110313Z 16009KT 04/M00 A3024 RMK A01 T00371003  RH  075%=      5-min Rain = 0
KCL1 110314Z 17008KT 04/M00 A3024 RMK A01 T00361003  RH  076%=      5-min Rain = 0
KCL1 110315Z 17009KT 04/M00 A3024 RMK A01 T00361003  RH  076%=      5-min Rain = 0
KCL1 110316Z 17009KT 04/M00 A3024 RMK A01 T00361003  RH  076%=      5-min Rain = 0
KCL1 110317Z 16008KT 04/M00 A3024 RMK A01 T00351004  RH  076%=      5-min Rain = 0
KCL1 110318Z 16008KT 04/M00 A3024 RMK A01 T00351003  RH  076%=      5-min Rain = 0
KCL1 110319Z 17007KT 03/M00 A3024 RMK A01 T00341004  RH  076%=      5-min Rain = 0
KCL1 110320Z 16008KT 03/M00 A3024 RMK A01 T00341004  RH  076%=      5-min Rain = 0
KCL1 110321Z 16007KT 03/M00 A3024 RMK A01 T00341004  RH  076%=      5-min Rain = 0
KCL1 110322Z 16007KT 03/M00 A3024 RMK A01 T00341004  RH  076%=      5-min Rain = 0
KCL1 110323Z 17006KT 03/M01 A3024 RMK A01 T00321006  RH  076%=      5-min Rain = 0
KCL1 110324Z 17007KT 03/M01 A3024 RMK A01 T00311006  RH  076%=      5-min Rain = 0
KCL1 110325Z 17007KT 03/M01 A3024 RMK A01 T00311006  RH  077%=      5-min Rain = 0
KCL1 110326Z 17007KT 03/M01 A3024 RMK A01 T00301006  RH  077%=      5-min Rain = 0
KCL1 110327Z 17007KT 03/M01 A3024 RMK A01 T00301006  RH  077%=      5-min Rain = 0
KCL1 110328Z 17007KT 03/M01 A3024 RMK A01 T00301006  RH  077%=      5-min Rain = 0
KCL1 110329Z 17007KT 03/M01 A3024 RMK A01 T00301006  RH  077%=      5-min Rain = 0
KCL1 110330Z 17006KT 03/M01 A3024 RMK A01 T00301006  RH  078%=      5-min Rain = 0
KCL1 110331Z 17006KT 03/M01 A3024 RMK A01 T00301005  RH  078%=      5-min Rain = 0
KCL1 110332Z 17006KT 03/M01 A3024 RMK A01 T00291006  RH  078%=      5-min Rain = 0
KCL1 110333Z 18006KT 03/M01 A3024 RMK A01 T00291006  RH  078%=      5-min Rain = 0
KCL1 110334Z 18006KT 03/M01 A3024 RMK A01 T00281006  RH  078%=      5-min Rain = 0
KCL1 110335Z 18006KT 03/M01 A3024 RMK A01 T00281007  RH  078%=      5-min Rain = 0
KCL1 110336Z 18006KT 03/M01 A3024 RMK A01 T00281008  RH  077%=      5-min Rain = 0
KCL1 110337Z 18005KT 03/M01 A3024 RMK A01 T00271009  RH  077%=      5-min Rain = 0
KCL1 110338Z 20005KT 03/M01 A3024 RMK A01 T00261009  RH  077%=      5-min Rain = 0
KCL1 110339Z 21004KT 03/M01 A3024 RMK A01 T00261009  RH  077%=      5-min Rain = 0
KCL1 110340Z 21005KT 03/M01 A3024 RMK A01 T00271009  RH  077%=      5-min Rain = 0
KCL1 110341Z 20005KT 03/M01 A3024 RMK A01 T00281008  RH  077%=      5-min Rain = 0
KCL1 110342Z 21004KT 03/M01 A3024 RMK A01 T00291007  RH  077%=      5-min Rain = 0
KCL1 110343Z 20005KT 03/M01 A3024 RMK A01 T00301007  RH  076%=      5-min Rain = 0
KCL1 110344Z 20005KT 03/M01 A3024 RMK A01 T00311007  RH  076%=      5-min Rain = 0
KCL1 110345Z 19005KT 03/M01 A3024 RMK A01 T00311007  RH  076%=      5-min Rain = 0
KCL1 110346Z 19005KT 03/M01 A3024 RMK A01 T00311008  RH  076%=      5-min Rain = 0
KCL1 110347Z 19005KT 03/M01 A3024 RMK A01 T00311008  RH  076%=      5-min Rain = 0
KCL1 110348Z 19005KT 03/M01 A3024 RMK A01 T00311007  RH  076%=      5-min Rain = 0
KCL1 110349Z 19006KT 03/M01 A3024 RMK A01 T00311008  RH  076%=      5-min Rain = 0
KCL1 110350Z 18006KT 03/M01 A3024 RMK A01 T00311008  RH  075%=      5-min Rain = 0
KCL1 110351Z 19006KT 03/M01 A3024 RMK A01 T00311008  RH  075%=      5-min Rain = 0
KCL1 110352Z 18007KT 03/M01 A3024 RMK A01 T00311008  RH  076%=      5-min Rain = 0
KCL1 110353Z 18007KT 03/M01 A3024 RMK A01 T00311008  RH  075%=      5-min Rain = 0
KCL1 110354Z 19006KT 03/M01 A3024 RMK A01 T00311008  RH  075%=      5-min Rain = 0
KCL1 110355Z 19005KT 03/M01 A3024 RMK A01 T00301009  RH  075%=      5-min Rain = 0
KCL1 110356Z 19005KT 03/M01 A3024 RMK A01 T00291010  RH  075%=      5-min Rain = 0
KCL1 110357Z 19005KT 03/M01 A3024 RMK A01 T00281010  RH  076%=      5-min Rain = 0
KCL1 110358Z 18006KT 03/M01 A3024 RMK A01 T00271010  RH  076%=      5-min Rain = 0
KCL1 110359Z 18007KT 03/M01 A3024 RMK A01 T00271011  RH  076%=      5-min Rain = 0
KCL1 110400Z 18007KT 03/M01 A3024 RMK A01 T00261011  RH  076%=      5-min Rain = 0
KCL1 110401Z 19007KT 03/M01 A3024 RMK A01 T00271010  RH  076%=      5-min Rain = 0
KCL1 110402Z 19007KT 03/M01 A3024 RMK A01 T00281010  RH  076%=      5-min Rain = 0
KCL1 110403Z 19007KT 03/M01 A3024 RMK A01 T00281010  RH  076%=      5-min Rain = 0
KCL1 110404Z 19007KT 03/M01 A3024 RMK A01 T00291010  RH  075%=      5-min Rain = 0
KCL1 110405Z 19007KT 03/M01 A3024 RMK A01 T00291011  RH  075%=      5-min Rain = 0
KCL1 110406Z 19007KT 03/M01 A3024 RMK A01 T00291011  RH  075%=      5-min Rain = 0
KCL1 110407Z 19007KT 03/M01 A3024 RMK A01 T00291011  RH  075%=      5-min Rain = 0
KCL1 110408Z 19007KT 03/M01 A3024 RMK A01 T00281011  RH  075%=      5-min Rain = 0
KCL1 110409Z 19007KT 03/M01 A3024 RMK A01 T00281011  RH  075%=      5-min Rain = 0
KCL1 110410Z 19007KT 03/M01 A3024 RMK A01 T00281011  RH  075%=      5-min Rain = 0
KCL1 110411Z 19007KT 03/M01 A3024 RMK A01 T00291010  RH  075%=      5-min Rain = 0
KCL1 110412Z 19007KT 03/M01 A3024 RMK A01 T00301010  RH  075%=      5-min Rain = 0
KCL1 110413Z 19007KT 03/M01 A3024 RMK A01 T00311011  RH  074%=      5-min Rain = 0
KCL1 110414Z 20007KT 03/M01 A3024 RMK A01 T00311011  RH  074%=      5-min Rain = 0
KCL1 110415Z 20008KT 03/M01 A3024 RMK A01 T00321011  RH  073%=      5-min Rain = 0
KCL1 110416Z 20008KT 03/M01 A3024 RMK A01 T00331010  RH  073%=      5-min Rain = 0
KCL1 110417Z 20008KT 03/M01 A3024 RMK A01 T00341011  RH  073%=      5-min Rain = 0
KCL1 110418Z 20008KT 04/M01 A3024 RMK A01 T00351011  RH  072%=      5-min Rain = 0
KCL1 110419Z 20008KT 04/M01 A3024 RMK A01 T00351011  RH  071%=      5-min Rain = 0
KCL1 110420Z 20007KT 04/M01 A3024 RMK A01 T00361012  RH  071%=      5-min Rain = 0
KCL1 110421Z 19007KT 04/M01 A3024 RMK A01 T00361012  RH  071%=      5-min Rain = 0
KCL1 110422Z 20008KT 04/M01 A3024 RMK A01 T00361012  RH  071%=      5-min Rain = 0
KCL1 110423Z 20008KT 04/M01 A3024 RMK A01 T00371012  RH  070%=      5-min Rain = 0
KCL1 110424Z 20008KT 04/M01 A3024 RMK A01 T00371013  RH  070%=      5-min Rain = 0
KCL1 110425Z 20007KT 04/M01 A3024 RMK A01 T00381013  RH  070%=      5-min Rain = 0
KCL1 110426Z 20008KT 04/M01 A3024 RMK A01 T00371013  RH  070%=      5-min Rain = 0
KCL1 110427Z 19008KT 04/M01 A3024 RMK A01 T00371014  RH  070%=      5-min Rain = 0
KCL1 110428Z 19007KT 04/M01 A3025 RMK A01 T00381013  RH  069%=      5-min Rain = 0
KCL1 110429Z 20008KT 04/M01 A3025 RMK A01 T00381014  RH  069%=      5-min Rain = 0
KCL1 110430Z 19008KT 04/M01 A3024 RMK A01 T00381014  RH  069%=      5-min Rain = 0
KCL1 110431Z 19008KT 04/M01 A3024 RMK A01 T00381014  RH  069%=      5-min Rain = 0
KCL1 110432Z 19008KT 04/M01 A3024 RMK A01 T00371014  RH  069%=      5-min Rain = 0
KCL1 110433Z 20008KT 04/M01 A3024 RMK A01 T00371014  RH  069%=      5-min Rain = 0
KCL1 110434Z 19007KT 04/M01 A3024 RMK A01 T00371014  RH  069%=      5-min Rain = 0
KCL1 110435Z 19007KT 04/M01 A3024 RMK A01 T00371014  RH  069%=      5-min Rain = 0
KCL1 110436Z 20009KT 04/M02 A3024 RMK A01 T00371015  RH  069%=      5-min Rain = 0
KCL1 110437Z 20007KT 04/M02 A3024 RMK A01 T00361015  RH  069%=      5-min Rain = 0
KCL1 110438Z 20008KT 04/M02 A3024 RMK A01 T00361015  RH  069%=      5-min Rain = 0
KCL1 110439Z 20007KT 04/M02 A3024 RMK A01 T00361015  RH  069%=      5-min Rain = 0
KCL1 110440Z 20008KT 04/M02 A3024 RMK A01 T00361016  RH  069%=      5-min Rain = 0
KCL1 110441Z 21007KT 04/M02 A3024 RMK A01 T00361015  RH  069%=      5-min Rain = 0
KCL1 110442Z 20009KT 04/M02 A3024 RMK A01 T00361015  RH  069%=      5-min Rain = 0
KCL1 110443Z 20008KT 04/M02 A3024 RMK A01 T00361015  RH  069%=      5-min Rain = 0
KCL1 110444Z 20008KT 04/M02 A3025 RMK A01 T00371015  RH  069%=      5-min Rain = 0
KCL1 110445Z 20009KT 04/M02 A3025 RMK A01 T00371015  RH  068%=      5-min Rain = 0
KCL1 110446Z 20009KT 04/M02 A3025 RMK A01 T00381015  RH  068%=      5-min Rain = 0
KCL1 110447Z 20009KT 04/M02 A3025 RMK A01 T00381015  RH  068%=      5-min Rain = 0
KCL1 110448Z 20009KT 04/M02 A3025 RMK A01 T00381015  RH  068%=      5-min Rain = 0
KCL1 110449Z 21010KT 04/M02 A3025 RMK A01 T00391015  RH  068%=      5-min Rain = 0
KCL1 110450Z 20009KT 04/M02 A3025 RMK A01 T00391015  RH  068%=      5-min Rain = 0
KCL1 110451Z 21009KT 04/M02 A3025 RMK A01 T00401015  RH  068%=      5-min Rain = 0
KCL1 110452Z 21009KT 04/M02 A3025 RMK A01 T00401015  RH  067%=      5-min Rain = 0
KCL1 110453Z 21009KT 04/M02 A3025 RMK A01 T00411015  RH  067%=      5-min Rain = 0
KCL1 110454Z 21009KT 04/M02 A3025 RMK A01 T00411015  RH  067%=      5-min Rain = 0
KCL1 110455Z 20010KT 04/M02 A3025 RMK A01 T00401015  RH  067%=      5-min Rain = 0
KCL1 110456Z 20009KT 04/M02 A3025 RMK A01 T00401015  RH  067%=      5-min Rain = 0
KCL1 110457Z 21009KT 04/M02 A3025 RMK A01 T00401015  RH  067%=      5-min Rain = 0
KCL1 110458Z 20007KT 04/M02 A3025 RMK A01 T00391015  RH  068%=      5-min Rain = 0
KCL1 110459Z 20007KT 04/M02 A3025 RMK A01 T00381015  RH  068%=      5-min Rain = 0
KCL1 110500Z 21007KT 04/M02 A3025 RMK A01 T00381015  RH  068%=      5-min Rain = 0
KCL1 110501Z 20006KT 04/M02 A3025 RMK A01 T00371015  RH  069%=      5-min Rain = 0
KCL1 110502Z 20008KT 04/M02 A3025 RMK A01 T00371015  RH  069%=      5-min Rain = 0
KCL1 110503Z 20006KT 04/M01 A3025 RMK A01 T00371014  RH  069%=      5-min Rain = 0
KCL1 110504Z 20007KT 04/M01 A3025 RMK A01 T00371014  RH  069%=      5-min Rain = 0
KCL1 110505Z 20009KT 04/M01 A3025 RMK A01 T00371014  RH  069%=      5-min Rain = 0
KCL1 110506Z 20007KT 04/M01 A3025 RMK A01 T00371013  RH  070%=      5-min Rain = 0
KCL1 110507Z 20008KT 04/M01 A3025 RMK A01 T00381013  RH  069%=      5-min Rain = 0
KCL1 110508Z 21009KT 04/M01 A3024 RMK A01 T00381013  RH  070%=      5-min Rain = 0
KCL1 110509Z 20008KT 04/M01 A3024 RMK A01 T00381012  RH  070%=      5-min Rain = 0
KCL1 110510Z 21008KT 04/M01 A3024 RMK A01 T00381012  RH  070%=      5-min Rain = 0
KCL1 110511Z 21008KT 04/M01 A3024 RMK A01 T00381012  RH  070%=      5-min Rain = 0
KCL1 110512Z 21009KT 04/M01 A3024 RMK A01 T00381011  RH  070%=      5-min Rain = 0
KCL1 110513Z 20010KT 04/M01 A3024 RMK A01 T00381011  RH  071%=      5-min Rain = 0
KCL1 110514Z 20010KT 04/M01 A3025 RMK A01 T00381011  RH  071%=      5-min Rain = 0
KCL1 110515Z 20009KT 04/M01 A3025 RMK A01 T00381010  RH  071%=      5-min Rain = 0
KCL1 110516Z 20007KT 04/M01 A3025 RMK A01 T00381010  RH  071%=      5-min Rain = 0
KCL1 110517Z 20008KT 04/M01 A3025 RMK A01 T00371010  RH  072%=      5-min Rain = 0
KCL1 110518Z 20009KT 04/M01 A3024 RMK A01 T00361010  RH  072%=      5-min Rain = 0
KCL1 110519Z 20010KT 04/M01 A3024 RMK A01 T00361009  RH  072%=      5-min Rain = 0
KCL1 110520Z 20008KT 04/M01 A3024 RMK A01 T00361009  RH  072%=      5-min Rain = 0
KCL1 110521Z 20008KT 04/M01 A3024 RMK A01 T00361009  RH  072%=      5-min Rain = 0
KCL1 110522Z 20008KT 04/M01 A3024 RMK A01 T00351009  RH  073%=      5-min Rain = 0
KCL1 110523Z 20010KT 04/M01 A3024 RMK A01 T00351009  RH  073%=      5-min Rain = 0
KCL1 110524Z 19009KT 04/M01 A3024 RMK A01 T00351008  RH  073%=      5-min Rain = 0
KCL1 110525Z 20011KT 04/M01 A3024 RMK A01 T00361008  RH  073%=      5-min Rain = 0
KCL1 110526Z 20009KT 04/M01 A3024 RMK A01 T00371007  RH  073%=      5-min Rain = 0
KCL1 110527Z 20010KT 04/M01 A3024 RMK A01 T00371008  RH  073%=      5-min Rain = 0
KCL1 110528Z 19008KT 04/M01 A3024 RMK A01 T00371008  RH  073%=      5-min Rain = 0
KCL1 110529Z 20006KT 04/M01 A3024 RMK A01 T00371008  RH  073%=      5-min Rain = 0
KCL1 110530Z 20009KT 04/M01 A3024 RMK A01 T00351009  RH  073%=      5-min Rain = 0
KCL1 110531Z 20011KT 04/M01 A3024 RMK A01 T00351008  RH  073%=      5-min Rain = 0
KCL1 110532Z 20007KT 04/M01 A3024 RMK A01 T00361008  RH  073%=      5-min Rain = 0
KCL1 110533Z 20010KT 04/M01 A3024 RMK A01 T00361008  RH  073%=      5-min Rain = 0
KCL1 110534Z 20008KT 04/M01 A3024 RMK A01 T00361008  RH  073%=      5-min Rain = 0
KCL1 110535Z 20010KT 04/M01 A3024 RMK A01 T00361008  RH  073%=      5-min Rain = 0
KCL1 110536Z 20010KT 04/M01 A3024 RMK A01 T00361008  RH  073%=      5-min Rain = 0
KCL1 110537Z 20010KT 04/M01 A3024 RMK A01 T00361008  RH  073%=      5-min Rain = 0
KCL1 110538Z 20009KT 04/M01 A3024 RMK A01 T00361008  RH  073%=      5-min Rain = 0
KCL1 110539Z 20009KT 04/M01 A3023 RMK A01 T00361008  RH  073%=      5-min Rain = 0
KCL1 110540Z 20009KT 04/M01 A3023 RMK A01 T00361008  RH  073%=      5-min Rain = 0
KCL1 110541Z 19010KT 04/M01 A3023 RMK A01 T00361008  RH  073%=      5-min Rain = 0
KCL1 110542Z 20009KT 04/M01 A3023 RMK A01 T00361008  RH  073%=      5-min Rain = 0
KCL1 110543Z 20009KT 04/M01 A3023 RMK A01 T00351009  RH  073%=      5-min Rain = 0
KCL1 110544Z 20010KT 04/M01 A3023 RMK A01 T00351009  RH  073%=      5-min Rain = 0
KCL1 110545Z 20010KT 04/M01 A3023 RMK A01 T00351008  RH  073%=      5-min Rain = 0
KCL1 110546Z 20009KT 04/M01 A3023 RMK A01 T00351008  RH  073%=      5-min Rain = 0
KCL1 110547Z 20008KT 04/M01 A3023 RMK A01 T00351009  RH  073%=      5-min Rain = 0
KCL1 110548Z 19007KT 04/M01 A3023 RMK A01 T00351009  RH  073%=      5-min Rain = 0
KCL1 110549Z 20009KT 03/M01 A3023 RMK A01 T00341009  RH  073%=      5-min Rain = 0
KCL1 110550Z 20010KT 03/M01 A3023 RMK A01 T00341009  RH  074%=      5-min Rain = 0
KCL1 110551Z 20008KT 03/M01 A3023 RMK A01 T00331009  RH  074%=      5-min Rain = 0
KCL1 110552Z 20009KT 03/M01 A3023 RMK A01 T00331010  RH  074%=      5-min Rain = 0
KCL1 110553Z 20008KT 03/M01 A3023 RMK A01 T00331010  RH  074%=      5-min Rain = 0
KCL1 110554Z 20008KT 03/M01 A3023 RMK A01 T00321010  RH  074%=      5-min Rain = 0
KCL1 110555Z 20008KT 03/M01 A3023 RMK A01 T00321010  RH  074%=      5-min Rain = 0
KCL1 110556Z 20008KT 03/M01 A3023 RMK A01 T00311010  RH  074%=      5-min Rain = 0
KCL1 110557Z 20007KT 03/M01 A3023 RMK A01 T00311010  RH  074%=      5-min Rain = 0
KCL1 110558Z 20008KT 03/M01 A3023 RMK A01 T00311010  RH  074%=      5-min Rain = 0
KCL1 110559Z 20008KT 03/M01 A3023 RMK A01 T00311010  RH  075%=      5-min Rain = 0

Page generated in 0.0837 seconds.